Wetterdaten: Montag, 14.07.2014
Datum Zeit Temp. Aussen +5cm Feuchte Auss Luftdruck Regen Sonnenschein Regendauer UV Solar Windben
14.07.2014 00:00 17,2 C 16,1 C 98 % 1007,4 hPa 0,0 l/m 0 min 0 min 0,0 UV-I 0 W/m 12,6 km/h (3 Bft)
14.07.2014 00:02 17,3 C 16,1 C 98 % 1007,4 hPa 0,0 l/m 0 min 0 min 0,0 UV-I 0 W/m 8,4 km/h (2 Bft)
14.07.2014 00:06 17,3 C 16,1 C 98 % 1007,4 hPa 0,0 l/m 0 min 2 min 0,0 UV-I 0 W/m 10,5 km/h (2 Bft)
14.07.2014 00:08 17,3 C 16,1 C 98 % 1007,5 hPa 0,0 l/m 0 min 2 min 0,0 UV-I 0 W/m 8,4 km/h (2 Bft)
14.07.2014 00:10 17,3 C 16,1 C 98 % 1007,3 hPa 0,0 l/m 0 min 2 min 0,0 UV-I 0 W/m 16,7 km/h (3 Bft)
14.07.2014 00:12 17,3 C 16,1 C 98 % 1007,4 hPa 0,2 l/m 0 min 2 min 0,0 UV-I 0 W/m 12,6 km/h (3 Bft)
14.07.2014 00:14 17,4 C 16,1 C 98 % 1007,5 hPa 0,2 l/m 0 min 2 min 0,0 UV-I 0 W/m 18,8 km/h (3 Bft)
14.07.2014 00:16 17,4 C 16,1 C 98 % 1007,5 hPa 0,0 l/m 0 min 2 min 0,0 UV-I 0 W/m 10,5 km/h (2 Bft)
14.07.2014 00:18 17,4 C 16,1 C 98 % 1007,5 hPa 0,2 l/m 0 min 2 min 0,0 UV-I 0 W/m 8,4 km/h (2 Bft)
14.07.2014 00:20 17,4 C 16,1 C 98 % 1007,5 hPa 0,0 l/m 0 min 2 min 0,0 UV-I 0 W/m 10,5 km/h (2 Bft)
14.07.2014 00:22 17,4 C 16,1 C 98 % 1007,6 hPa 0,0 l/m 0 min 2 min 0,0 UV-I 0 W/m 8,4 km/h (2 Bft)
14.07.2014 00:24 17,4 C 16,1 C 98 % 1007,6 hPa 0,0 l/m 0 min 2 min 0,0 UV-I 0 W/m 8,4 km/h (2 Bft)
14.07.2014 00:26 17,4 C 16,1 C 98 % 1007,7 hPa 0,0 l/m 0 min 2 min 0,0 UV-I 0 W/m 14,6 km/h (3 Bft)
14.07.2014 00:28 17,4 C 16,1 C 98 % 1007,7 hPa 0,0 l/m 0 min 2 min 0,0 UV-I 0 W/m 8,4 km/h (2 Bft)
14.07.2014 00:30 17,4 C 16,1 C 98 % 1007,7 hPa 0,0 l/m 0 min 0 min 0,0 UV-I 0 W/m 10,5 km/h (2 Bft)
14.07.2014 00:32 17,4 C 16,1 C 98 % 1007,7 hPa 0,0 l/m 0 min 0 min 0,0 UV-I 0 W/m 14,6 km/h (3 Bft)
14.07.2014 00:34 17,4 C 16,1 C 98 % 1007,8 hPa 0,0 l/m 0 min 0 min 0,0 UV-I 0 W/m 14,6 km/h (3 Bft)
14.07.2014 00:36 17,3 C 16,1 C 98 % 1007,8 hPa 0,0 l/m 0 min 0 min 0,0 UV-I 0 W/m 14,6 km/h (3 Bft)
14.07.2014 00:38 17,3 C 16,1 C 98 % 1007,8 hPa 0,0 l/m 0 min 0 min 0,0 UV-I 0 W/m 6,3 km/h (2 Bft)
14.07.2014 00:40 17,3 C 16,1 C 98 % 1007,8 hPa 0,0 l/m 0 min 0 min 0,0 UV-I 0 W/m 8,4 km/h (2 Bft)
14.07.2014 00:42 17,3 C 16,1 C 98 % 1007,8 hPa 0,0 l/m 0 min 0 min 0,0 UV-I 0 W/m 12,6 km/h (3 Bft)
14.07.2014 00:44 17,3 C 16,1 C 98 % 1007,9 hPa 0,0 l/m 0 min 0 min 0,0 UV-I 0 W/m 16,7 km/h (3 Bft)
14.07.2014 00:46 17,2 C 16,1 C 99 % 1007,9 hPa 0,0 l/m 0 min 0 min 0,0 UV-I 0 W/m 16,7 km/h (3 Bft)
14.07.2014 00:48 17,2 C 16,1 C 99 % 1007,9 hPa 0,0 l/m 0 min 0 min 0,0 UV-I 0 W/m 10,5 km/h (2 Bft)
14.07.2014 00:50 17,2 C 16,1 C 99 % 1007,9 hPa 0,0 l/m 0 min 0 min 0,0 UV-I 0 W/m 12,6 km/h (3 Bft)
14.07.2014 00:52 17,2 C 16,1 C 99 % 1007,9 hPa 0,0 l/m 0 min 0 min 0,0 UV-I 0 W/m 12,6 km/h (3 Bft)
14.07.2014 00:54 17,2 C 16,1 C 99 % 1007,9 hPa 0,0 l/m 0 min 0 min 0,0 UV-I 0 W/m 12,6 km/h (3 Bft)
14.07.2014 00:56 17,2 C 16,1 C 99 % 1007,9 hPa 0,0 l/m 0 min 0 min 0,0 UV-I 0 W/m 14,6 km/h (3 Bft)
14.07.2014 00:58 17,2 C 16,1 C 99 % 1007,8 hPa 0,0 l/m 0 min 0 min 0,0 UV-I 0 W/m 14,6 km/h (3 Bft)
14.07.2014 01:00 17,2 C 16,1 C 99 % 1007,8 hPa 0,0 l/m 0 min 0 min 0,0 UV-I 0 W/m 10,5 km/h (2 Bft)
14.07.2014 01:02 17,2 C 16,1 C 99 % 1007,9 hPa 0,0 l/m 0 min 0 min 0,0 UV-I 0 W/m 8,4 km/h (2 Bft)
14.07.2014 01:04 17,2 C 16,1 C 99 % 1007,8 hPa 0,0 l/m 0 min 0 min 0,0 UV-I 0 W/m 10,5 km/h (2 Bft)
14.07.2014 01:06 17,2 C 16,1 C 99 % 1007,9 hPa 0,0 l/m 0 min 0 min 0,0 UV-I 0 W/m 8,4 km/h (2 Bft)
14.07.2014 01:08 17,1 C 16,1 C 99 % 1007,8 hPa 0,0 l/m 0 min 0 min 0,0 UV-I 0 W/m 10,5 km/h (2 Bft)
14.07.2014 01:10 17,1 C 16,1 C 99 % 1007,9 hPa 0,0 l/m 0 min 0 min 0,0 UV-I 0 W/m 12,6 km/h (3 Bft)
14.07.2014 01:12 17,1 C 16,1 C 99 % 1007,9 hPa 0,0 l/m 0 min 0 min 0,0 UV-I 0 W/m 10,5 km/h (2 Bft)
14.07.2014 01:14 17,1 C 16,1 C 99 % 1007,9 hPa 0,0 l/m 0 min 0 min 0,0 UV-I 0 W/m 10,5 km/h (2 Bft)
14.07.2014 01:16 17,1 C 15,6 C 99 % 1007,9 hPa 0,0 l/m 0 min 0 min 0,0 UV-I 0 W/m 14,6 km/h (3 Bft)
14.07.2014 01:18 17,1 C 15,6 C 99 % 1007,9 hPa 0,0 l/m 0 min 0 min 0,0 UV-I 0 W/m 14,6 km/h (3 Bft)
14.07.2014 01:20 17,1 C 15,6 C 99 % 1007,9 hPa 0,0 l/m 0 min 0 min 0,0 UV-I 0 W/m 8,4 km/h (2 Bft)
14.07.2014 01:22 17,1 C 15,6 C 99 % 1007,9 hPa 0,0 l/m 0 min 0 min 0,0 UV-I 0 W/m 8,4 km/h (2 Bft)
14.07.2014 01:24 17,0 C 15,6 C 99 % 1007,9 hPa 0,0 l/m 0 min 0 min 0,0 UV-I 0 W/m 10,5 km/h (2 Bft)
14.07.2014 01:26 17,0 C 15,6 C 99 % 1007,9 hPa 0,0 l/m 0 min 0 min 0,0 UV-I 0 W/m 10,5 km/h (2 Bft)
14.07.2014 01:28 17,0 C 15,6 C 99 % 1007,9 hPa 0,0 l/m 0 min 0 min 0,0 UV-I 0 W/m 8,4 km/h (2 Bft)
14.07.2014 01:30 16,9 C 15,6 C 99 % 1007,9 hPa 0,0 l/m 0 min 0 min 0,0 UV-I 0 W/m 8,4 km/h (2 Bft)
14.07.2014 01:32 16,9 C 15,6 C 99 % 1007,9 hPa 0,0 l/m 0 min 0 min 0,0 UV-I 0 W/m 12,6 km/h (3 Bft)
14.07.2014 01:34 16,9 C 15,6 C 99 % 1008,0 hPa 0,0 l/m 0 min 0 min 0,0 UV-I 0 W/m 8,4 km/h (2 Bft)
14.07.2014 01:36 16,9 C 15,6 C 99 % 1007,9 hPa 0,0 l/m 0 min 0 min 0,0 UV-I 0 W/m 10,5 km/h (2 Bft)
14.07.2014 01:38 16,9 C 15,6 C 99 % 1008,0 hPa 0,0 l/m 0 min 0 min 0,0 UV-I 0 W/m 10,5 km/h (2 Bft)
14.07.2014 01:40 16,8 C 15,6 C 99 % 1008,0 hPa 0,0 l/m 0 min 0 min 0,0 UV-I 0 W/m 8,4 km/h (2 Bft)
14.07.2014 01:42 16,9 C 15,6 C 99 % 1008,0 hPa 0,0 l/m 0 min 0 min 0,0 UV-I 0 W/m 12,6 km/h (3 Bft)
14.07.2014 01:44 16,8 C 15,6 C 99 % 1008,0 hPa 0,0 l/m 0 min 0 min 0,0 UV-I 0 W/m 6,3 km/h (2 Bft)
14.07.2014 01:46 16,8 C 15,6 C 99 % 1008,1 hPa 0,0 l/m 0 min 0 min 0,0 UV-I 0 W/m 6,3 km/h (2 Bft)
14.07.2014 01:48 16,8 C 15,6 C 99 % 1008,1 hPa 0,0 l/m 0 min 0 min 0,0 UV-I 0 W/m 12,6 km/h (3 Bft)
14.07.2014 01:50 16,8 C 15,6 C 99 % 1008,2 hPa 0,0 l/m 0 min 0 min 0,0 UV-I 0 W/m 6,3 km/h (2 Bft)
14.07.2014 01:52 16,7 C 15,0 C 99 % 1008,1 hPa 0,0 l/m 0 min 0 min 0,0 UV-I 0 W/m 12,6 km/h (3 Bft)
14.07.2014 01:54 16,7 C 15,0 C 99 % 1008,2 hPa 0,2 l/m 0 min 0 min 0,0 UV-I 0 W/m 10,5 km/h (2 Bft)
14.07.2014 01:56 16,7 C 15,0 C 99 % 1008,2 hPa 0,0 l/m 0 min 0 min 0,0 UV-I 0 W/m 12,6 km/h (3 Bft)
14.07.2014 01:58 16,7 C 15,0 C 99 % 1008,2 hPa 0,0 l/m 0 min 0 min 0,0 UV-I 0 W/m 10,5 km/h (2 Bft)
14.07.2014 02:00 16,7 C 15,0 C 99 % 1008,2 hPa 0,0 l/m 0 min 0 min 0,0 UV-I 0 W/m 18,8 km/h (3 Bft)
14.07.2014 02:02 16,7 C 15,0 C 99 % 1008,2 hPa 0,0 l/m 0 min 0 min 0,0 UV-I 0 W/m 12,6 km/h (3 Bft)
14.07.2014 02:04 16,7 C 15,0 C 99 % 1008,2 hPa 0,0 l/m 0 min 0 min 0,0 UV-I 0 W/m 8,4 km/h (2 Bft)
14.07.2014 02:06 16,6 C 15,0 C 99 % 1008,2 hPa 0,0 l/m 0 min 0 min 0,0 UV-I 0 W/m 10,5 km/h (2 Bft)
14.07.2014 02:08 16,6 C 15,0 C 99 % 1008,3 hPa 0,0 l/m 0 min 0 min 0,0 UV-I 0 W/m 14,6 km/h (3 Bft)
14.07.2014 02:10 16,6 C 15,0 C 99 % 1008,3 hPa 0,0 l/m 0 min 0 min 0,0 UV-I 0 W/m 12,6 km/h (3 Bft)
14.07.2014 02:12 16,6 C 15,6 C 99 % 1008,3 hPa 0,0 l/m 0 min 0 min 0,0 UV-I 0 W/m 10,5 km/h (2 Bft)
14.07.2014 02:14 16,6 C 15,6 C 99 % 1008,3 hPa 0,0 l/m 0 min 0 min 0,0 UV-I 0 W/m 12,6 km/h (3 Bft)
14.07.2014 02:16 16,6 C 15,0 C 99 % 1008,3 hPa 0,0 l/m 0 min 0 min 0,0 UV-I 0 W/m 8,4 km/h (2 Bft)
14.07.2014 02:18 16,6 C 15,0 C 99 % 1008,3 hPa 0,0 l/m 0 min 0 min 0,0 UV-I 0 W/m 8,4 km/h (2 Bft)
14.07.2014 02:20 16,6 C 15,0 C 99 % 1008,3 hPa 0,0 l/m 0 min 0 min 0,0 UV-I 0 W/m 8,4 km/h (2 Bft)
14.07.2014 02:22 16,6 C 15,0 C 99 % 1008,3 hPa 0,0 l/m 0 min 0 min 0,0 UV-I 0 W/m 14,6 km/h (3 Bft)
14.07.2014 02:24 16,6 C 15,0 C 99 % 1008,4 hPa 0,0 l/m 0 min 0 min 0,0 UV-I 0 W/m 6,3 km/h (2 Bft)
14.07.2014 02:26 16,6 C 15,0 C 99 % 1008,3 hPa 0,0 l/m 0 min 0 min 0,0 UV-I 0 W/m 6,3 km/h (2 Bft)
14.07.2014 02:28 16,5 C 15,0 C 99 % 1008,4 hPa 0,0 l/m 0 min 0 min 0,0 UV-I 0 W/m 8,4 km/h (2 Bft)
14.07.2014 02:30 16,5 C 15,0 C 99 % 1008,4 hPa 0,0 l/m 0 min 0 min 0,0 UV-I 0 W/m 0,0 km/h (0 Bft)
14.07.2014 02:32 16,6 C 15,0 C 99 % 1008,4 hPa 0,0 l/m 0 min 0 min 0,0 UV-I 0 W/m 8,4 km/h (2 Bft)
14.07.2014 02:34 16,6 C 15,6 C 99 % 1008,3 hPa 0,0 l/m 0 min 0 min 0,0 UV-I 0 W/m 8,4 km/h (2 Bft)
14.07.2014 02:36 16,6 C 15,6 C 99 % 1008,3 hPa 0,0 l/m 0 min 0 min 0,0 UV-I 0 W/m 8,4 km/h (2 Bft)
14.07.2014 02:38 16,6 C 15,6 C 99 % 1008,4 hPa 0,0 l/m 0 min 0 min 0,0 UV-I 0 W/m 8,4 km/h (2 Bft)
14.07.2014 02:40 16,6 C 15,6 C 99 % 1008,4 hPa 0,0 l/m 0 min 0 min 0,0 UV-I 0 W/m 8,4 km/h (2 Bft)
14.07.2014 02:42 16,6 C 15,6 C 99 % 1008,4 hPa 0,0 l/m 0 min 0 min 0,0 UV-I 0 W/m 8,4 km/h (2 Bft)
14.07.2014 02:44 16,6 C 15,6 C 99 % 1008,4 hPa 0,0 l/m 0 min 0 min 0,0 UV-I 0 W/m 4,2 km/h (1 Bft)
14.07.2014 02:46 16,6 C 15,6 C 99 % 1008,4 hPa 0,0 l/m 0 min 0 min 0,0 UV-I 0 W/m 2,1 km/h (1 Bft)
14.07.2014 02:48 16,7 C 15,6 C 99 % 1008,4 hPa 0,0 l/m 0 min 0 min 0,0 UV-I 0 W/m 6,3 km/h (2 Bft)
14.07.2014 02:50 16,7 C 15,6 C 99 % 1008,4 hPa 0,0 l/m 0 min 0 min 0,0 UV-I 0 W/m 2,1 km/h (1 Bft)
14.07.2014 02:52 16,7 C 15,6 C 99 % 1008,4 hPa 0,0 l/m 0 min 0 min 0,0 UV-I 0 W/m 2,1 km/h (1 Bft)
14.07.2014 02:54 16,7 C 15,6 C 99 % 1008,4 hPa 0,0 l/m 0 min 0 min 0,0 UV-I 0 W/m 0,0 km/h (0 Bft)
14.07.2014 02:56 16,7 C 15,6 C 99 % 1008,4 hPa 0,0 l/m 0 min 0 min 0,0 UV-I 0 W/m 0,0 km/h (0 Bft)
14.07.2014 02:58 16,7 C 15,6 C 99 % 1008,5 hPa 0,0 l/m 0 min 0 min 0,0 UV-I 0 W/m 0,0 km/h (0 Bft)
14.07.2014 03:00 16,7 C 15,6 C 99 % 1008,4 hPa 0,0 l/m 0 min 0 min 0,0 UV-I 0 W/m 2,1 km/h (1 Bft)
14.07.2014 03:02 16,8 C 15,6 C 99 % 1008,4 hPa 0,0 l/m 0 min 0 min 0,0 UV-I 0 W/m 0,0 km/h (0 Bft)
14.07.2014 03:04 16,8 C 15,6 C 99 % 1008,4 hPa 0,0 l/m 0 min 0 min 0,0 UV-I 0 W/m 0,0 km/h (0 Bft)
14.07.2014 03:06 16,8 C 15,6 C 99 % 1008,4 hPa 0,0 l/m 0 min 0 min 0,0 UV-I 0 W/m 8,4 km/h (2 Bft)
14.07.2014 03:08 16,8 C 15,6 C 99 % 1008,4 hPa 0,0 l/m 0 min 0 min 0,0 UV-I 0 W/m 6,3 km/h (2 Bft)
14.07.2014 03:10 16,8 C 15,6 C 99 % 1008,4 hPa 0,0 l/m 0 min 0 min 0,0 UV-I 0 W/m 10,5 km/h (2 Bft)
14.07.2014 03:12 16,8 C 15,6 C 99 % 1008,5 hPa 0,0 l/m 0 min 0 min 0,0 UV-I 0 W/m 6,3 km/h (2 Bft)
14.07.2014 03:14 16,9 C 15,6 C 99 % 1008,4 hPa 0,0 l/m 0 min 0 min 0,0 UV-I 0 W/m 8,4 km/h (2 Bft)
14.07.2014 03:16 16,9 C 15,6 C 99 % 1008,4 hPa 0,0 l/m 0 min 0 min 0,0 UV-I 0 W/m 16,7 km/h (3 Bft)
14.07.2014 03:18 16,9 C 15,6 C 99 % 1008,5 hPa 0,0 l/m 0 min 0 min 0,0 UV-I 0 W/m 18,8 km/h (3 Bft)
14.07.2014 03:20 16,8 C 15,6 C 99 % 1008,5 hPa 0,0 l/m 0 min 0 min 0,0 UV-I 0 W/m 16,7 km/h (3 Bft)
14.07.2014 03:22 16,7 C 15,6 C 99 % 1008,5 hPa 0,0 l/m 0 min 0 min 0,0 UV-I 0 W/m 18,8 km/h (3 Bft)
14.07.2014 03:24 16,6 C 15,6 C 99 % 1008,5 hPa 0,0 l/m 0 min 0 min 0,0 UV-I 0 W/m 18,8 km/h (3 Bft)
14.07.2014 03:26 16,6 C 15,6 C 99 % 1008,5 hPa 0,0 l/m 0 min 0 min 0,0 UV-I 0 W/m 12,6 km/h (3 Bft)
14.07.2014 03:28 16,5 C 15,6 C 99 % 1008,5 hPa 0,0 l/m 0 min 0 min 0,0 UV-I 0 W/m 16,7 km/h (3 Bft)
14.07.2014 03:30 16,5 C 15,0 C 99 % 1008,5 hPa 0,0 l/m 0 min 0 min 0,0 UV-I 0 W/m 16,7 km/h (3 Bft)
14.07.2014 03:32 16,4 C 15,0 C 99 % 1008,5 hPa 0,0 l/m 0 min 0 min 0,0 UV-I 0 W/m 14,6 km/h (3 Bft)
14.07.2014 03:34 16,4 C 15,0 C 99 % 1008,5 hPa 0,0 l/m 0 min 0 min 0,0 UV-I 0 W/m 10,5 km/h (2 Bft)
14.07.2014 03:36 16,4 C 15,0 C 99 % 1008,5 hPa 0,0 l/m 0 min 0 min 0,0 UV-I 0 W/m 16,7 km/h (3 Bft)
14.07.2014 03:38 16,4 C 15,0 C 99 % 1008,5 hPa 0,0 l/m 0 min 0 min 0,0 UV-I 0 W/m 18,8 km/h (3 Bft)
14.07.2014 03:40 16,4 C 15,0 C 99 % 1008,5 hPa 0,0 l/m 0 min 0 min 0,0 UV-I 0 W/m 10,5 km/h (2 Bft)
14.07.2014 03:42 16,4 C 15,0 C 99 % 1008,5 hPa 0,0 l/m 0 min 0 min 0,0 UV-I 0 W/m 12,6 km/h (3 Bft)
14.07.2014 03:44 16,4 C 15,0 C 99 % 1008,5 hPa 0,0 l/m 0 min 0 min 0,0 UV-I 0 W/m 12,6 km/h (3 Bft)
14.07.2014 03:46 16,4 C 15,0 C 99 % 1008,5 hPa 0,0 l/m 0 min 0 min 0,0 UV-I 0 W/m 10,5 km/h (2 Bft)
14.07.2014 03:48 16,4 C 15,0 C 99 % 1008,5 hPa 0,0 l/m 0 min 0 min 0,0 UV-I 0 W/m 10,5 km/h (2 Bft)
14.07.2014 03:50 16,4 C 15,0 C 99 % 1008,5 hPa 0,0 l/m 0 min 0 min 0,0 UV-I 0 W/m 14,6 km/h (3 Bft)
14.07.2014 03:52 16,4 C 15,0 C 99 % 1008,5 hPa 0,0 l/m 0 min 0 min 0,0 UV-I 0 W/m 12,6 km/h (3 Bft)
14.07.2014 03:54 16,4 C 15,0 C 99 % 1008,5 hPa 0,0 l/m 0 min 0 min 0,0 UV-I 0 W/m 10,5 km/h (2 Bft)
14.07.2014 03:56 16,4 C 15,0 C 99 % 1008,5 hPa 0,0 l/m 0 min 0 min 0,0 UV-I 0 W/m 10,5 km/h (2 Bft)
14.07.2014 03:58 16,4 C 15,0 C 99 % 1008,6 hPa 0,0 l/m 0 min 0 min 0,0 UV-I 0 W/m 16,7 km/h (3 Bft)
14.07.2014 04:00 16,4 C 15,0 C 99 % 1008,6 hPa 0,0 l/m 0 min 0 min 0,0 UV-I 0 W/m 12,6 km/h (3 Bft)
14.07.2014 04:02 16,4 C 15,0 C 99 % 1008,6 hPa 0,0 l/m 0 min 0 min 0,0 UV-I 0 W/m 16,7 km/h (3 Bft)
14.07.2014 04:04 16,4 C 15,0 C 99 % 1008,6 hPa 0,0 l/m 0 min 0 min 0,0 UV-I 0 W/m 20,9 km/h (4 Bft)
14.07.2014 04:06 16,4 C 15,0 C 99 % 1008,7 hPa 0,0 l/m 0 min 0 min 0,0 UV-I 0 W/m 18,8 km/h (3 Bft)
14.07.2014 04:08 16,3 C 15,0 C 99 % 1008,7 hPa 0,0 l/m 0 min 0 min 0,0 UV-I 0 W/m 14,6 km/h (3 Bft)
14.07.2014 04:10 16,3 C 15,0 C 99 % 1008,7 hPa 0,0 l/m 0 min 0 min 0,0 UV-I 0 W/m 16,7 km/h (3 Bft)
14.07.2014 04:12 16,2 C 15,0 C 99 % 1008,7 hPa 0,0 l/m 0 min 0 min 0,0 UV-I 0 W/m 23,0 km/h (4 Bft)
14.07.2014 04:14 16,2 C 15,0 C 99 % 1008,8 hPa 0,0 l/m 0 min 0 min 0,0 UV-I 0 W/m 18,8 km/h (3 Bft)
14.07.2014 04:16 16,2 C 15,0 C 99 % 1008,8 hPa 0,0 l/m 0 min 0 min 0,0 UV-I 0 W/m 14,6 km/h (3 Bft)
14.07.2014 04:18 16,2 C 15,0 C 98 % 1008,7 hPa 0,0 l/m 0 min 0 min 0,0 UV-I 0 W/m 14,6 km/h (3 Bft)
14.07.2014 04:20 16,2 C 15,0 C 98 % 1008,7 hPa 0,0 l/m 0 min 0 min 0,0 UV-I 0 W/m 8,4 km/h (2 Bft)
14.07.2014 04:22 16,2 C 15,0 C 98 % 1008,7 hPa 0,0 l/m 0 min 0 min 0,0 UV-I 0 W/m 8,4 km/h (2 Bft)
14.07.2014 04:24 16,2 C 15,0 C 98 % 1008,7 hPa 0,0 l/m 0 min 0 min 0,0 UV-I 0 W/m 16,7 km/h (3 Bft)
14.07.2014 04:26 16,1 C 15,0 C 98 % 1008,8 hPa 0,0 l/m 0 min 0 min 0,0 UV-I 0 W/m 20,9 km/h (4 Bft)
14.07.2014 04:28 16,1 C 15,0 C 98 % 1008,8 hPa 0,0 l/m 0 min 0 min 0,0 UV-I 0 W/m 20,9 km/h (4 Bft)
14.07.2014 04:30 16,0 C 15,0 C 98 % 1008,8 hPa 0,0 l/m 0 min 0 min 0,0 UV-I 0 W/m 20,9 km/h (4 Bft)
14.07.2014 04:32 15,9 C 15,0 C 98 % 1008,8 hPa 0,0 l/m 0 min 0 min 0,0 UV-I 0 W/m 14,6 km/h (3 Bft)
14.07.2014 04:34 15,9 C 15,0 C 98 % 1008,9 hPa 0,0 l/m 0 min 0 min 0,0 UV-I 0 W/m 12,6 km/h (3 Bft)
14.07.2014 04:36 15,9 C 15,0 C 98 % 1009,0 hPa 0,0 l/m 0 min 0 min 0,0 UV-I 0 W/m 14,6 km/h (3 Bft)
14.07.2014 04:38 15,9 C 15,0 C 98 % 1009,0 hPa 0,0 l/m 0 min 0 min 0,0 UV-I 0 W/m 8,4 km/h (2 Bft)
14.07.2014 04:40 15,9 C 14,4 C 98 % 1009,0 hPa 0,0 l/m 0 min 0 min 0,0 UV-I 0 W/m 10,5 km/h (2 Bft)
14.07.2014 04:42 15,9 C 14,4 C 98 % 1009,0 hPa 0,0 l/m 0 min 0 min 0,0 UV-I 0 W/m 10,5 km/h (2 Bft)
14.07.2014 04:44 15,9 C 14,4 C 98 % 1009,0 hPa 0,0 l/m 0 min 0 min 0,0 UV-I 0 W/m 14,6 km/h (3 Bft)
14.07.2014 04:46 15,9 C 15,0 C 98 % 1009,0 hPa 0,0 l/m 0 min 0 min 0,0 UV-I 0 W/m 10,5 km/h (2 Bft)
14.07.2014 04:48 15,9 C 14,4 C 98 % 1009,0 hPa 0,0 l/m 0 min 0 min 0,0 UV-I 0 W/m 8,4 km/h (2 Bft)
14.07.2014 04:50 15,9 C 14,4 C 98 % 1009,0 hPa 0,0 l/m 0 min 0 min 0,0 UV-I 0 W/m 12,6 km/h (3 Bft)
14.07.2014 04:52 15,8 C 14,4 C 98 % 1009,0 hPa 0,0 l/m 0 min 0 min 0,0 UV-I 0 W/m 18,8 km/h (3 Bft)
14.07.2014 04:54 15,8 C 14,4 C 98 % 1008,9 hPa 0,0 l/m 0 min 0 min 0,0 UV-I 0 W/m 14,6 km/h (3 Bft)
14.07.2014 04:56 15,7 C 14,4 C 98 % 1008,9 hPa 0,0 l/m 0 min 0 min 0,0 UV-I 0 W/m 16,7 km/h (3 Bft)
14.07.2014 04:58 15,7 C 14,4 C 98 % 1009,0 hPa 0,0 l/m 0 min 0 min 0,0 UV-I 0 W/m 12,6 km/h (3 Bft)
14.07.2014 05:00 15,7 C 14,4 C 98 % 1009,0 hPa 0,0 l/m 0 min 0 min 0,0 UV-I 0 W/m 10,5 km/h (2 Bft)
14.07.2014 05:02 15,7 C 14,4 C 98 % 1009,1 hPa 0,0 l/m 0 min 0 min 0,0 UV-I 0 W/m 12,6 km/h (3 Bft)
14.07.2014 05:04 15,6 C 14,4 C 98 % 1009,1 hPa 0,0 l/m 0 min 0 min 0,0 UV-I 0 W/m 18,8 km/h (3 Bft)
14.07.2014 05:06 15,6 C 14,4 C 98 % 1009,1 hPa 0,0 l/m 0 min 0 min 0,0 UV-I 0 W/m 18,8 km/h (3 Bft)
14.07.2014 05:08 15,5 C 14,4 C 98 % 1009,1 hPa 0,0 l/m 0 min 0 min 0,0 UV-I 0 W/m 12,6 km/h (3 Bft)
14.07.2014 05:10 15,5 C 14,4 C 98 % 1009,1 hPa 0,0 l/m 0 min 0 min 0,0 UV-I 0 W/m 14,6 km/h (3 Bft)
14.07.2014 05:12 15,5 C 14,4 C 98 % 1009,2 hPa 0,0 l/m 0 min 0 min 0,0 UV-I 0 W/m 12,6 km/h (3 Bft)
14.07.2014 05:14 15,4 C 13,9 C 97 % 1009,2 hPa 0,0 l/m 0 min 0 min 0,0 UV-I 0 W/m 23,0 km/h (4 Bft)
14.07.2014 05:16 15,4 C 13,9 C 97 % 1009,2 hPa 0,0 l/m 0 min 0 min 0,0 UV-I 0 W/m 20,9 km/h (4 Bft)
14.07.2014 05:18 15,4 C 13,9 C 97 % 1009,2 hPa 0,0 l/m 0 min 0 min 0,0 UV-I 0 W/m 14,6 km/h (3 Bft)
14.07.2014 05:20 15,3 C 13,9 C 97 % 1009,2 hPa 0,0 l/m 0 min 0 min 0,0 UV-I 0 W/m 16,7 km/h (3 Bft)
14.07.2014 05:22 15,3 C 13,9 C 97 % 1009,3 hPa 0,0 l/m 0 min 0 min 0,0 UV-I 0 W/m 14,6 km/h (3 Bft)
14.07.2014 05:24 15,3 C 13,9 C 97 % 1009,3 hPa 0,0 l/m 0 min 0 min 0,0 UV-I 0 W/m 14,6 km/h (3 Bft)
14.07.2014 05:26 15,3 C 13,9 C 97 % 1009,4 hPa 0,0 l/m 0 min 0 min 0,0 UV-I 0 W/m 18,8 km/h (3 Bft)
14.07.2014 05:28 15,2 C 13,9 C 97 % 1009,3 hPa 0,0 l/m 0 min 0 min 0,0 UV-I 0 W/m 12,6 km/h (3 Bft)
14.07.2014 05:30 15,2 C 13,9 C 97 % 1009,3 hPa 0,0 l/m 0 min 0 min 0,0 UV-I 0 W/m 18,8 km/h (3 Bft)
14.07.2014 05:32 15,2 C 13,9 C 97 % 1009,3 hPa 0,0 l/m 0 min 0 min 0,0 UV-I 0 W/m 18,8 km/h (3 Bft)
14.07.2014 05:34 15,2 C 13,9 C 97 % 1009,4 hPa 0,0 l/m 0 min 0 min 0,0 UV-I 0 W/m 12,6 km/h (3 Bft)
14.07.2014 05:36 15,1 C 13,9 C 97 % 1009,4 hPa 0,0 l/m 0 min 0 min 0,0 UV-I 0 W/m 18,8 km/h (3 Bft)
14.07.2014 05:38 15,1 C 13,9 C 97 % 1009,4 hPa 0,0 l/m 0 min 0 min 0,0 UV-I 0 W/m 8,4 km/h (2 Bft)
14.07.2014 05:40 15,1 C 13,9 C 97 % 1009,4 hPa 0,0 l/m 0 min 0 min 0,0 UV-I 0 W/m 10,5 km/h (2 Bft)
14.07.2014 05:42 15,1 C 13,9 C 97 % 1009,5 hPa 0,0 l/m 0 min 0 min 0,0 UV-I 0 W/m 10,5 km/h (2 Bft)
14.07.2014 05:44 15,1 C 13,9 C 97 % 1009,4 hPa 0,0 l/m 0 min 0 min 0,0 UV-I 0 W/m 12,6 km/h (3 Bft)
14.07.2014 05:46 15,0 C 13,9 C 97 % 1009,5 hPa 0,0 l/m 0 min 0 min 0,0 UV-I 0 W/m 18,8 km/h (3 Bft)
14.07.2014 05:48 15,0 C 13,9 C 97 % 1009,6 hPa 0,0 l/m 0 min 0 min 0,0 UV-I 0 W/m 12,6 km/h (3 Bft)
14.07.2014 05:50 15,0 C 13,9 C 97 % 1009,5 hPa 0,0 l/m 0 min 0 min 0,0 UV-I 0 W/m 8,4 km/h (2 Bft)
14.07.2014 05:52 15,0 C 13,9 C 97 % 1009,6 hPa 0,0 l/m 0 min 0 min 0,0 UV-I 5 W/m 12,6 km/h (3 Bft)
14.07.2014 05:54 14,9 C 13,9 C 97 % 1009,5 hPa 0,0 l/m 0 min 0 min 0,0 UV-I 5 W/m 12,6 km/h (3 Bft)
14.07.2014 05:56 14,9 C 13,9 C 97 % 1009,5 hPa 0,0 l/m 0 min 0 min 0,0 UV-I 5 W/m 18,8 km/h (3 Bft)
14.07.2014 05:58 14,9 C 13,9 C 96 % 1009,6 hPa 0,0 l/m 0 min 0 min 0,0 UV-I 7 W/m 12,6 km/h (3 Bft)
14.07.2014 06:00 14,9 C 13,9 C 96 % 1009,6 hPa 0,0 l/m 0 min 0 min 0,0 UV-I 7 W/m 14,6 km/h (3 Bft)
14.07.2014 06:02 14,9 C 13,9 C 96 % 1009,6 hPa 0,0 l/m 0 min 0 min 0,0 UV-I 7 W/m 14,6 km/h (3 Bft)
14.07.2014 06:06 14,9 C 13,3 C 96 % 1009,6 hPa 0,0 l/m 0 min 0 min 0,0 UV-I 9 W/m 14,6 km/h (3 Bft)
14.07.2014 06:08 14,9 C 13,9 C 96 % 1009,6 hPa 0,0 l/m 0 min 0 min 0,0 UV-I 9 W/m 12,6 km/h (3 Bft)
14.07.2014 06:10 14,8 C 13,3 C 96 % 1009,7 hPa 0,0 l/m 0 min 0 min 0,0 UV-I 11 W/m 16,7 km/h (3 Bft)
14.07.2014 06:12 14,8 C 13,3 C 96 % 1009,7 hPa 0,0 l/m 0 min 0 min 0,0 UV-I 11 W/m 16,7 km/h (3 Bft)
14.07.2014 06:14 14,8 C 13,3 C 96 % 1009,7 hPa 0,0 l/m 0 min 0 min 0,0 UV-I 11 W/m 16,7 km/h (3 Bft)
14.07.2014 06:16 14,8 C 13,3 C 96 % 1009,7 hPa 0,0 l/m 0 min 0 min 0,0 UV-I 12 W/m 12,6 km/h (3 Bft)
14.07.2014 06:18 14,8 C 13,3 C 96 % 1009,7 hPa 0,0 l/m 0 min 0 min 0,0 UV-I 12 W/m 14,6 km/h (3 Bft)
14.07.2014 06:20 14,8 C 13,9 C 96 % 1009,7 hPa 0,0 l/m 0 min 0 min 0,0 UV-I 12 W/m 14,6 km/h (3 Bft)
14.07.2014 06:22 14,8 C 13,9 C 96 % 1009,7 hPa 0,0 l/m 0 min 0 min 0,0 UV-I 12 W/m 12,6 km/h (3 Bft)
14.07.2014 06:24 14,8 C 13,3 C 96 % 1009,8 hPa 0,0 l/m 0 min 0 min 0,0 UV-I 12 W/m 12,6 km/h (3 Bft)
14.07.2014 06:26 14,8 C 13,9 C 96 % 1009,9 hPa 0,0 l/m 0 min 0 min 0,0 UV-I 12 W/m 12,6 km/h (3 Bft)
14.07.2014 06:28 14,8 C 13,3 C 96 % 1009,8 hPa 0,0 l/m 0 min 0 min 0,0 UV-I 12 W/m 14,6 km/h (3 Bft)
14.07.2014 06:30 14,8 C 13,3 C 96 % 1009,8 hPa 0,0 l/m 0 min 0 min 0,0 UV-I 14 W/m 12,6 km/h (3 Bft)
14.07.2014 06:32 14,8 C 13,3 C 96 % 1009,8 hPa 0,0 l/m 0 min 0 min 0,0 UV-I 14 W/m 12,6 km/h (3 Bft)
14.07.2014 06:34 14,8 C 13,3 C 96 % 1009,8 hPa 0,0 l/m 0 min 0 min 0,0 UV-I 14 W/m 14,6 km/h (3 Bft)
14.07.2014 06:36 14,7 C 13,3 C 96 % 1009,9 hPa 0,0 l/m 0 min 0 min 0,0 UV-I 14 W/m 14,6 km/h (3 Bft)
14.07.2014 06:38 14,7 C 13,3 C 96 % 1009,9 hPa 0,0 l/m 0 min 0 min 0,0 UV-I 14 W/m 14,6 km/h (3 Bft)
14.07.2014 06:40 14,8 C 13,3 C 96 % 1009,9 hPa 0,0 l/m 0 min 0 min 0,0 UV-I 16 W/m 16,7 km/h (3 Bft)
14.07.2014 06:42 14,8 C 13,3 C 96 % 1009,9 hPa 0,0 l/m 0 min 0 min 0,0 UV-I 16 W/m 16,7 km/h (3 Bft)
14.07.2014 06:44 14,7 C 13,3 C 96 % 1009,9 hPa 0,0 l/m 0 min 0 min 0,0 UV-I 16 W/m 16,7 km/h (3 Bft)
14.07.2014 06:46 14,7 C 13,3 C 96 % 1009,9 hPa 0,0 l/m 0 min 0 min 0,0 UV-I 18 W/m 16,7 km/h (3 Bft)
14.07.2014 06:48 14,7 C 13,3 C 96 % 1009,9 hPa 0,0 l/m 0 min 0 min 0,0 UV-I 19 W/m 12,6 km/h (3 Bft)
14.07.2014 06:50 14,7 C 13,3 C 96 % 1009,9 hPa 0,0 l/m 0 min 0 min 0,0 UV-I 19 W/m 12,6 km/h (3 Bft)
14.07.2014 06:52 14,7 C 13,3 C 96 % 1009,9 hPa 0,0 l/m 0 min 0 min 0,0 UV-I 21 W/m 20,9 km/h (4 Bft)
14.07.2014 06:54 14,7 C 13,3 C 96 % 1009,9 hPa 0,0 l/m 0 min 0 min 0,0 UV-I 21 W/m 14,6 km/h (3 Bft)
14.07.2014 06:56 14,7 C 13,3 C 96 % 1009,9 hPa 0,0 l/m 0 min 0 min 0,0 UV-I 21 W/m 14,6 km/h (3 Bft)
14.07.2014 06:58 14,7 C 13,3 C 96 % 1010,0 hPa 0,0 l/m 0 min 0 min 0,0 UV-I 19 W/m 16,7 km/h (3 Bft)
14.07.2014 07:00 14,7 C 13,3 C 96 % 1009,9 hPa 0,0 l/m 0 min 0 min 0,0 UV-I 21 W/m 16,7 km/h (3 Bft)
14.07.2014 07:02 14,7 C 13,3 C 96 % 1009,9 hPa 0,0 l/m 0 min 0 min 0,0 UV-I 23 W/m 16,7 km/h (3 Bft)
14.07.2014 07:04 14,7 C 13,3 C 96 % 1010,0 hPa 0,0 l/m 0 min 0 min 0,0 UV-I 23 W/m 10,5 km/h (2 Bft)
14.07.2014 07:06 14,7 C 13,3 C 96 % 1010,0 hPa 0,0 l/m 0 min 0 min 0,0 UV-I 23 W/m 10,5 km/h (2 Bft)
14.07.2014 07:08 14,7 C 13,3 C 96 % 1010,0 hPa 0,0 l/m 0 min 0 min 0,0 UV-I 25 W/m 10,5 km/h (2 Bft)
14.07.2014 07:10 14,7 C 13,3 C 96 % 1010,0 hPa 0,0 l/m 0 min 0 min 0,0 UV-I 28 W/m 12,6 km/h (3 Bft)
14.07.2014 07:12 14,7 C 13,3 C 96 % 1010,1 hPa 0,0 l/m 0 min 0 min 0,0 UV-I 30 W/m 14,6 km/h (3 Bft)
14.07.2014 07:14 14,8 C 13,3 C 96 % 1010,0 hPa 0,0 l/m 0 min 0 min 0,0 UV-I 30 W/m 14,6 km/h (3 Bft)
14.07.2014 07:16 14,8 C 13,3 C 96 % 1010,1 hPa 0,0 l/m 0 min 0 min 0,0 UV-I 30 W/m 14,6 km/h (3 Bft)
14.07.2014 07:18 14,8 C 13,3 C 96 % 1010,1 hPa 0,0 l/m 0 min 0 min 0,0 UV-I 32 W/m 16,7 km/h (3 Bft)
14.07.2014 07:20 14,8 C 13,3 C 96 % 1010,0 hPa 0,0 l/m 0 min 0 min 0,0 UV-I 30 W/m 10,5 km/h (2 Bft)
14.07.2014 07:22 14,8 C 13,9 C 96 % 1010,1 hPa 0,0 l/m 0 min 0 min 0,0 UV-I 35 W/m 14,6 km/h (3 Bft)
14.07.2014 07:24 14,8 C 13,9 C 96 % 1010,1 hPa 0,0 l/m 0 min 0 min 0,0 UV-I 37 W/m 14,6 km/h (3 Bft)
14.07.2014 07:26 14,8 C 13,9 C 96 % 1010,1 hPa 0,0 l/m 0 min 0 min 0,0 UV-I 44 W/m 8,4 km/h (2 Bft)
14.07.2014 07:28 14,9 C 13,9 C 96 % 1010,2 hPa 0,0 l/m 0 min 0 min 0,0 UV-I 47 W/m 16,7 km/h (3 Bft)
14.07.2014 07:30 14,9 C 13,9 C 96 % 1010,2 hPa 0,0 l/m 0 min 0 min 0,0 UV-I 54 W/m 14,6 km/h (3 Bft)
14.07.2014 07:32 14,9 C 13,9 C 96 % 1010,2 hPa 0,0 l/m 0 min 0 min 0,0 UV-I 63 W/m 16,7 km/h (3 Bft)
14.07.2014 07:34 14,9 C 13,9 C 96 % 1010,2 hPa 0,0 l/m 0 min 0 min 0,0 UV-I 58 W/m 16,7 km/h (3 Bft)
14.07.2014 07:36 14,9 C 13,9 C 96 % 1010,2 hPa 0,0 l/m 0 min 0 min 0,0 UV-I 58 W/m 12,6 km/h (3 Bft)
14.07.2014 07:38 14,9 C 13,9 C 96 % 1010,2 hPa 0,0 l/m 0 min 0 min 0,0 UV-I 54 W/m 16,7 km/h (3 Bft)
14.07.2014 07:40 15,0 C 13,9 C 96 % 1010,2 hPa 0,0 l/m 0 min 0 min 0,0 UV-I 49 W/m 14,6 km/h (3 Bft)
14.07.2014 07:42 15,0 C 13,9 C 96 % 1010,3 hPa 0,0 l/m 0 min 0 min 0,0 UV-I 37 W/m 12,6 km/h (3 Bft)
14.07.2014 07:44 15,0 C 13,9 C 96 % 1010,3 hPa 0,0 l/m 0 min 0 min 0,0 UV-I 39 W/m 20,9 km/h (4 Bft)
14.07.2014 07:46 15,0 C 13,9 C 96 % 1010,3 hPa 0,0 l/m 0 min 0 min 0,0 UV-I 58 W/m 20,9 km/h (4 Bft)
14.07.2014 07:48 15,0 C 13,9 C 96 % 1010,4 hPa 0,0 l/m 0 min 0 min 0,0 UV-I 69 W/m 14,6 km/h (3 Bft)
14.07.2014 07:50 15,0 C 13,9 C 96 % 1010,3 hPa 0,0 l/m 0 min 0 min 0,0 UV-I 47 W/m 16,7 km/h (3 Bft)
14.07.2014 07:52 15,1 C 13,9 C 96 % 1010,4 hPa 0,0 l/m 0 min 0 min 0,0 UV-I 46 W/m 12,6 km/h (3 Bft)
14.07.2014 07:54 15,1 C 13,9 C 96 % 1010,3 hPa 0,0 l/m 0 min 0 min 0,0 UV-I 44 W/m 18,8 km/h (3 Bft)
14.07.2014 07:56 15,1 C 13,9 C 96 % 1010,4 hPa 0,0 l/m 0 min 0 min 0,0 UV-I 39 W/m 14,6 km/h (3 Bft)
14.07.2014 07:58 15,0 C 13,9 C 96 % 1010,4 hPa 0,0 l/m 0 min 0 min 0,0 UV-I 33 W/m 16,7 km/h (3 Bft)
14.07.2014 08:00 15,0 C 13,9 C 96 % 1010,5 hPa 0,0 l/m 0 min 0 min 0,0 UV-I 35 W/m 16,7 km/h (3 Bft)
14.07.2014 08:02 15,0 C 13,9 C 96 % 1010,5 hPa 0,0 l/m 0 min 0 min 0,0 UV-I 42 W/m 14,6 km/h (3 Bft)
14.07.2014 08:04 15,0 C 13,9 C 96 % 1010,5 hPa 0,0 l/m 0 min 0 min 0,0 UV-I 39 W/m 12,6 km/h (3 Bft)
14.07.2014 08:06 14,9 C 13,9 C 96 % 1010,5 hPa 0,0 l/m 0 min 0 min 0,0 UV-I 46 W/m 18,8 km/h (3 Bft)
14.07.2014 08:08 14,9 C 13,9 C 96 % 1010,4 hPa 0,0 l/m 0 min 0 min 0,0 UV-I 53 W/m 18,8 km/h (3 Bft)
14.07.2014 08:10 14,9 C 13,9 C 96 % 1010,5 hPa 0,0 l/m 0 min 0 min 0,0 UV-I 51 W/m 12,6 km/h (3 Bft)
14.07.2014 08:12 14,9 C 13,9 C 96 % 1010,5 hPa 0,0 l/m 0 min 0 min 0,0 UV-I 53 W/m 14,6 km/h (3 Bft)
14.07.2014 08:14 14,9 C 13,9 C 96 % 1010,5 hPa 0,0 l/m 0 min 0 min 0,0 UV-I 46 W/m 16,7 km/h (3 Bft)
14.07.2014 08:16 15,0 C 13,9 C 96 % 1010,5 hPa 0,0 l/m 0 min 0 min 0,0 UV-I 39 W/m 14,6 km/h (3 Bft)
14.07.2014 08:18 14,9 C 13,9 C 96 % 1010,6 hPa 0,0 l/m 0 min 0 min 0,0 UV-I 42 W/m 18,8 km/h (3 Bft)
14.07.2014 08:20 15,0 C 13,9 C 96 % 1010,6 hPa 0,0 l/m 0 min 0 min 0,0 UV-I 42 W/m 12,6 km/h (3 Bft)
14.07.2014 08:22 15,0 C 13,9 C 96 % 1010,6 hPa 0,0 l/m 0 min 0 min 0,0 UV-I 39 W/m 12,6 km/h (3 Bft)
14.07.2014 08:24 15,0 C 13,9 C 96 % 1010,7 hPa 0,0 l/m 0 min 0 min 0,0 UV-I 37 W/m 18,8 km/h (3 Bft)
14.07.2014 08:26 15,0 C 13,9 C 96 % 1010,7 hPa 0,0 l/m 0 min 0 min 0,0 UV-I 37 W/m 23,0 km/h (4 Bft)
14.07.2014 08:28 15,0 C 13,9 C 96 % 1010,7 hPa 0,0 l/m 0 min 0 min 0,0 UV-I 44 W/m 23,0 km/h (4 Bft)
14.07.2014 08:30 15,0 C 13,9 C 96 % 1010,7 hPa 0,0 l/m 0 min 0 min 0,0 UV-I 47 W/m 18,8 km/h (3 Bft)
14.07.2014 08:32 15,1 C 13,9 C 97 % 1010,7 hPa 0,0 l/m 0 min 0 min 0,0 UV-I 56 W/m 14,6 km/h (3 Bft)
14.07.2014 08:34 15,1 C 13,9 C 97 % 1010,8 hPa 0,0 l/m 0 min 0 min 0,0 UV-I 56 W/m 12,6 km/h (3 Bft)
14.07.2014 08:36 15,1 C 13,9 C 97 % 1010,8 hPa 0,0 l/m 0 min 0 min 0,0 UV-I 46 W/m 12,6 km/h (3 Bft)
14.07.2014 08:38 15,1 C 13,9 C 97 % 1010,8 hPa 0,0 l/m 0 min 0 min 0,0 UV-I 49 W/m 18,8 km/h (3 Bft)
14.07.2014 08:40 15,1 C 13,9 C 97 % 1010,8 hPa 0,0 l/m 0 min 0 min 0,0 UV-I 51 W/m 16,7 km/h (3 Bft)
14.07.2014 08:42 15,1 C 13,9 C 97 % 1010,8 hPa 0,0 l/m 0 min 0 min 0,0 UV-I 46 W/m 20,9 km/h (4 Bft)
14.07.2014 08:44 15,1 C 13,9 C 97 % 1010,9 hPa 0,0 l/m 0 min 0 min 0,0 UV-I 44 W/m 18,8 km/h (3 Bft)
14.07.2014 08:46 15,1 C 13,9 C 97 % 1010,9 hPa 0,0 l/m 0 min 0 min 0,0 UV-I 42 W/m 20,9 km/h (4 Bft)
14.07.2014 08:48 15,1 C 13,9 C 97 % 1010,8 hPa 0,0 l/m 0 min 0 min 0,0 UV-I 54 W/m 14,6 km/h (3 Bft)
14.07.2014 08:50 15,1 C 13,9 C 97 % 1010,8 hPa 0,0 l/m 0 min 0 min 0,0 UV-I 70 W/m 14,6 km/h (3 Bft)
14.07.2014 08:52 15,2 C 14,4 C 97 % 1010,8 hPa 0,0 l/m 0 min 0 min 0,0 UV-I 77 W/m 12,6 km/h (3 Bft)
14.07.2014 08:54 15,2 C 14,4 C 97 % 1010,8 hPa 0,0 l/m 0 min 0 min 0,0 UV-I 83 W/m 12,6 km/h (3 Bft)
14.07.2014 08:56 15,2 C 14,4 C 97 % 1010,8 hPa 0,0 l/m 0 min 0 min 0,0 UV-I 83 W/m 14,6 km/h (3 Bft)
14.07.2014 08:58 15,3 C 14,4 C 97 % 1010,8 hPa 0,0 l/m 0 min 0 min 0,0 UV-I 95 W/m 14,6 km/h (3 Bft)
14.07.2014 09:00 15,3 C 14,4 C 97 % 1010,8 hPa 0,0 l/m 0 min 0 min 0,0 UV-I 97 W/m 16,7 km/h (3 Bft)
14.07.2014 09:02 15,3 C 14,4 C 97 % 1010,9 hPa 0,0 l/m 0 min 0 min 0,0 UV-I 100 W/m 14,6 km/h (3 Bft)
14.07.2014 09:04 15,4 C 14,4 C 97 % 1010,9 hPa 0,0 l/m 0 min 0 min 0,0 UV-I 107 W/m 18,8 km/h (3 Bft)
14.07.2014 09:06 15,4 C 14,4 C 97 % 1010,8 hPa 0,0 l/m 0 min 0 min 0,0 UV-I 120 W/m 16,7 km/h (3 Bft)
14.07.2014 09:08 15,5 C 14,4 C 97 % 1010,9 hPa 0,0 l/m 0 min 0 min 0,0 UV-I 109 W/m 18,8 km/h (3 Bft)
14.07.2014 09:10 15,4 C 14,4 C 97 % 1010,9 hPa 0,0 l/m 0 min 0 min 0,0 UV-I 95 W/m 20,9 km/h (4 Bft)
14.07.2014 09:12 15,5 C 14,4 C 97 % 1011,0 hPa 0,0 l/m 0 min 0 min 0,0 UV-I 72 W/m 12,6 km/h (3 Bft)
14.07.2014 09:14 15,6 C 14,4 C 97 % 1011,0 hPa 0,0 l/m 0 min 0 min 0,0 UV-I 62 W/m 23,0 km/h (4 Bft)
14.07.2014 09:16 15,6 C 14,4 C 97 % 1011,0 hPa 0,0 l/m 0 min 0 min 0,0 UV-I 67 W/m 18,8 km/h (3 Bft)
14.07.2014 09:18 15,6 C 14,4 C 97 % 1011,0 hPa 0,0 l/m 0 min 0 min 0,0 UV-I 67 W/m 12,6 km/h (3 Bft)
14.07.2014 09:20 15,6 C 14,4 C 97 % 1011,0 hPa 0,0 l/m 0 min 0 min 0,0 UV-I 56 W/m 18,8 km/h (3 Bft)
14.07.2014 09:22 15,5 C 14,4 C 97 % 1011,1 hPa 0,0 l/m 0 min 0 min 0,0 UV-I 42 W/m 18,8 km/h (3 Bft)
14.07.2014 09:24 15,5 C 14,4 C 97 % 1011,2 hPa 0,0 l/m 0 min 0 min 0,0 UV-I 44 W/m 16,7 km/h (3 Bft)
14.07.2014 09:26 15,5 C 14,4 C 96 % 1011,2 hPa 0,0 l/m 0 min 0 min 0,0 UV-I 47 W/m 20,9 km/h (4 Bft)
14.07.2014 09:28 15,5 C 14,4 C 96 % 1011,2 hPa 0,0 l/m 0 min 0 min 0,0 UV-I 58 W/m 12,6 km/h (3 Bft)
14.07.2014 09:30 15,5 C 14,4 C 96 % 1011,2 hPa 0,0 l/m 0 min 0 min 0,0 UV-I 54 W/m 16,7 km/h (3 Bft)
14.07.2014 09:32 15,5 C 14,4 C 96 % 1011,2 hPa 0,0 l/m 0 min 0 min 0,0 UV-I 58 W/m 18,8 km/h (3 Bft)
14.07.2014 09:34 15,5 C 14,4 C 97 % 1011,2 hPa 0,0 l/m 0 min 0 min 0,0 UV-I 76 W/m 14,6 km/h (3 Bft)
14.07.2014 09:36 15,5 C 14,4 C 97 % 1011,3 hPa 0,0 l/m 0 min 0 min 0,0 UV-I 88 W/m 14,6 km/h (3 Bft)
14.07.2014 09:38 15,5 C 14,4 C 97 % 1011,3 hPa 0,0 l/m 0 min 0 min 0,0 UV-I 93 W/m 14,6 km/h (3 Bft)
14.07.2014 09:40 15,6 C 14,4 C 97 % 1011,4 hPa 0,0 l/m 0 min 0 min 0,0 UV-I 98 W/m 16,7 km/h (3 Bft)
14.07.2014 09:42 15,6 C 14,4 C 97 % 1011,4 hPa 0,0 l/m 0 min 0 min 0,0 UV-I 90 W/m 14,6 km/h (3 Bft)
14.07.2014 09:44 15,6 C 14,4 C 97 % 1011,4 hPa 0,0 l/m 0 min 0 min 0,0 UV-I 76 W/m 18,8 km/h (3 Bft)
14.07.2014 09:46 15,6 C 14,4 C 97 % 1011,4 hPa 0,0 l/m 0 min 0 min 0,0 UV-I 81 W/m 14,6 km/h (3 Bft)
14.07.2014 09:48 15,7 C 15,0 C 97 % 1011,4 hPa 0,0 l/m 0 min 0 min 0,0 UV-I 98 W/m 14,6 km/h (3 Bft)
14.07.2014 09:50 15,7 C 15,0 C 97 % 1011,4 hPa 0,0 l/m 0 min 0 min 0,0 UV-I 107 W/m 14,6 km/h (3 Bft)
14.07.2014 09:52 15,7 C 15,0 C 97 % 1011,4 hPa 0,0 l/m 0 min 0 min 0,0 UV-I 109 W/m 16,7 km/h (3 Bft)
14.07.2014 09:54 15,7 C 15,0 C 96 % 1011,4 hPa 0,0 l/m 0 min 0 min 0,0 UV-I 105 W/m 16,7 km/h (3 Bft)
14.07.2014 09:56 15,8 C 15,0 C 97 % 1011,5 hPa 0,0 l/m 0 min 0 min 0,0 UV-I 79 W/m 14,6 km/h (3 Bft)
14.07.2014 09:58 15,8 C 14,4 C 97 % 1011,5 hPa 0,0 l/m 0 min 0 min 0,0 UV-I 69 W/m 14,6 km/h (3 Bft)
14.07.2014 10:00 15,9 C 15,0 C 97 % 1011,5 hPa 0,0 l/m 0 min 0 min 0,0 UV-I 84 W/m 14,6 km/h (3 Bft)
14.07.2014 10:02 15,9 C 15,0 C 97 % 1011,6 hPa 0,0 l/m 0 min 0 min 0,0 UV-I 111 W/m 16,7 km/h (3 Bft)
14.07.2014 10:04 15,9 C 15,0 C 97 % 1011,5 hPa 0,0 l/m 0 min 0 min 0,0 UV-I 107 W/m 14,6 km/h (3 Bft)
14.07.2014 10:06 16,0 C 15,0 C 96 % 1011,5 hPa 0,0 l/m 0 min 0 min 0,0 UV-I 105 W/m 14,6 km/h (3 Bft)
14.07.2014 10:08 16,1 C 15,0 C 96 % 1011,6 hPa 0,0 l/m 0 min 0 min 0,0 UV-I 95 W/m 18,8 km/h (3 Bft)
14.07.2014 10:10 16,0 C 15,0 C 96 % 1011,6 hPa 0,0 l/m 0 min 0 min 0,0 UV-I 90 W/m 14,6 km/h (3 Bft)
14.07.2014 10:12 16,0 C 15,0 C 96 % 1011,5 hPa 0,0 l/m 0 min 0 min 0,0 UV-I 95 W/m 16,7 km/h (3 Bft)
14.07.2014 10:14 16,1 C 15,0 C 96 % 1011,6 hPa 0,0 l/m 0 min 0 min 0,0 UV-I 88 W/m 12,6 km/h (3 Bft)
14.07.2014 10:16 16,1 C 15,0 C 96 % 1011,7 hPa 0,0 l/m 0 min 0 min 0,0 UV-I 91 W/m 14,6 km/h (3 Bft)
14.07.2014 10:18 16,1 C 15,0 C 96 % 1011,7 hPa 0,0 l/m 0 min 0 min 0,0 UV-I 91 W/m 20,9 km/h (4 Bft)
14.07.2014 10:20 16,1 C 15,0 C 96 % 1011,8 hPa 0,0 l/m 0 min 0 min 0,0 UV-I 114 W/m 14,6 km/h (3 Bft)
14.07.2014 10:22 16,2 C 15,0 C 96 % 1011,8 hPa 0,0 l/m 0 min 0 min 0,0 UV-I 132 W/m 16,7 km/h (3 Bft)
14.07.2014 10:24 16,2 C 15,0 C 96 % 1011,8 hPa 0,0 l/m 0 min 0 min 0,0 UV-I 127 W/m 14,6 km/h (3 Bft)
14.07.2014 10:26 16,2 C 15,0 C 96 % 1011,8 hPa 0,0 l/m 0 min 0 min 0,0 UV-I 130 W/m 23,0 km/h (4 Bft)
14.07.2014 10:28 16,3 C 15,6 C 96 % 1011,9 hPa 0,0 l/m 0 min 0 min 0,0 UV-I 149 W/m 12,6 km/h (3 Bft)
14.07.2014 10:30 16,4 C 15,6 C 96 % 1011,9 hPa 0,0 l/m 0 min 0 min 0,0 UV-I 148 W/m 23,0 km/h (4 Bft)
14.07.2014 10:32 16,4 C 15,6 C 96 % 1011,9 hPa 0,0 l/m 0 min 0 min 0,0 UV-I 132 W/m 16,7 km/h (3 Bft)
14.07.2014 10:34 16,5 C 15,6 C 96 % 1011,9 hPa 0,0 l/m 0 min 0 min 0,0 UV-I 134 W/m 16,7 km/h (3 Bft)
14.07.2014 10:36 16,5 C 15,6 C 96 % 1011,9 hPa 0,0 l/m 0 min 0 min 0,0 UV-I 137 W/m 18,8 km/h (3 Bft)
14.07.2014 10:38 16,6 C 15,6 C 96 % 1011,9 hPa 0,0 l/m 0 min 0 min 0,0 UV-I 141 W/m 20,9 km/h (4 Bft)
14.07.2014 10:40 16,6 C 15,6 C 96 % 1011,9 hPa 0,0 l/m 0 min 0 min 0,0 UV-I 158 W/m 14,6 km/h (3 Bft)
14.07.2014 10:42 16,6 C 15,6 C 96 % 1011,9 hPa 0,0 l/m 0 min 0 min 0,0 UV-I 162 W/m 14,6 km/h (3 Bft)
14.07.2014 10:44 16,7 C 16,1 C 95 % 1011,9 hPa 0,0 l/m 0 min 0 min 0,8 UV-I 206 W/m 16,7 km/h (3 Bft)
14.07.2014 10:46 16,9 C 16,1 C 96 % 1011,9 hPa 0,0 l/m 0 min 0 min 0,8 UV-I 218 W/m 10,5 km/h (2 Bft)
14.07.2014 10:48 16,9 C 16,1 C 96 % 1011,9 hPa 0,0 l/m 0 min 0 min 0,6 UV-I 202 W/m 10,5 km/h (2 Bft)
14.07.2014 10:50 16,9 C 16,1 C 95 % 1012,0 hPa 0,0 l/m 0 min 0 min 0,5 UV-I 192 W/m 12,6 km/h (3 Bft)
14.07.2014 10:52 17,0 C 16,1 C 95 % 1011,9 hPa 0,0 l/m 0 min 0 min 0,7 UV-I 193 W/m 12,6 km/h (3 Bft)
14.07.2014 10:54 17,1 C 16,1 C 95 % 1012,0 hPa 0,0 l/m 0 min 0 min 0,5 UV-I 174 W/m 16,7 km/h (3 Bft)
14.07.2014 10:56 17,2 C 16,1 C 95 % 1012,0 hPa 0,0 l/m 0 min 0 min 0,0 UV-I 155 W/m 14,6 km/h (3 Bft)
14.07.2014 10:58 17,2 C 16,1 C 95 % 1012,1 hPa 0,0 l/m 0 min 0 min 0,0 UV-I 171 W/m 16,7 km/h (3 Bft)
14.07.2014 11:00 17,2 C 16,1 C 95 % 1012,0 hPa 0,0 l/m 0 min 0 min 0,5 UV-I 160 W/m 16,7 km/h (3 Bft)
14.07.2014 11:02 17,2 C 16,1 C 95 % 1012,0 hPa 0,0 l/m 0 min 0 min 0,5 UV-I 165 W/m 18,8 km/h (3 Bft)
14.07.2014 11:04 17,2 C 16,1 C 95 % 1012,1 hPa 0,0 l/m 0 min 0 min 0,0 UV-I 156 W/m 16,7 km/h (3 Bft)
14.07.2014 11:06 17,2 C 16,1 C 95 % 1012,1 hPa 0,0 l/m 0 min 0 min 0,0 UV-I 148 W/m 18,8 km/h (3 Bft)
14.07.2014 11:08 17,2 C 16,1 C 95 % 1012,1 hPa 0,0 l/m 0 min 0 min 0,0 UV-I 149 W/m 20,9 km/h (4 Bft)
14.07.2014 11:10 17,2 C 16,1 C 94 % 1012,2 hPa 0,0 l/m 0 min 0 min 0,5 UV-I 167 W/m 16,7 km/h (3 Bft)
14.07.2014 11:12 17,2 C 16,1 C 95 % 1012,2 hPa 0,0 l/m 0 min 0 min 0,6 UV-I 176 W/m 23,0 km/h (4 Bft)
14.07.2014 11:14 17,2 C 16,1 C 94 % 1012,2 hPa 0,0 l/m 0 min 0 min 1,1 UV-I 225 W/m 20,9 km/h (4 Bft)
14.07.2014 11:16 17,3 C 16,7 C 94 % 1012,2 hPa 0,0 l/m 0 min 0 min 0,7 UV-I 183 W/m 20,9 km/h (4 Bft)
14.07.2014 11:18 17,3 C 16,1 C 94 % 1012,2 hPa 0,0 l/m 0 min 0 min 0,5 UV-I 163 W/m 16,7 km/h (3 Bft)
14.07.2014 11:20 17,3 C 16,1 C 94 % 1012,2 hPa 0,0 l/m 0 min 0 min 0,5 UV-I 151 W/m 23,0 km/h (4 Bft)
14.07.2014 11:22 17,3 C 16,1 C 94 % 1012,3 hPa 0,0 l/m 0 min 0 min 0,5 UV-I 163 W/m 16,7 km/h (3 Bft)
14.07.2014 11:24 17,3 C 16,1 C 94 % 1012,3 hPa 0,0 l/m 0 min 0 min 0,8 UV-I 202 W/m 14,6 km/h (3 Bft)
14.07.2014 11:26 17,3 C 16,1 C 94 % 1012,3 hPa 0,0 l/m 0 min 0 min 0,7 UV-I 193 W/m 16,7 km/h (3 Bft)
14.07.2014 11:28 17,3 C 16,7 C 94 % 1012,3 hPa 0,0 l/m 0 min 0 min 1,0 UV-I 221 W/m 14,6 km/h (3 Bft)
14.07.2014 11:30 17,4 C 16,7 C 94 % 1012,3 hPa 0,0 l/m 0 min 0 min 0,7 UV-I 193 W/m 14,6 km/h (3 Bft)
14.07.2014 11:32 17,4 C 16,7 C 94 % 1012,4 hPa 0,0 l/m 0 min 0 min 0,8 UV-I 188 W/m 14,6 km/h (3 Bft)
14.07.2014 11:34 17,5 C 16,7 C 94 % 1012,4 hPa 0,0 l/m 0 min 0 min 0,5 UV-I 162 W/m 16,7 km/h (3 Bft)
14.07.2014 11:36 17,5 C 16,7 C 94 % 1012,4 hPa 0,0 l/m 0 min 0 min 0,5 UV-I 156 W/m 14,6 km/h (3 Bft)
14.07.2014 11:38 17,4 C 16,1 C 94 % 1012,4 hPa 0,0 l/m 0 min 0 min 0,5 UV-I 163 W/m 14,6 km/h (3 Bft)
14.07.2014 11:40 17,4 C 16,7 C 94 % 1012,4 hPa 0,0 l/m 0 min 0 min 0,8 UV-I 188 W/m 16,7 km/h (3 Bft)
14.07.2014 11:42 17,4 C 16,7 C 94 % 1012,4 hPa 0,0 l/m 0 min 0 min 1,3 UV-I 250 W/m 20,9 km/h (4 Bft)
14.07.2014 11:44 17,4 C 16,7 C 94 % 1012,4 hPa 0,0 l/m 0 min 0 min 1,3 UV-I 257 W/m 20,9 km/h (4 Bft)
14.07.2014 11:46 17,5 C 16,7 C 94 % 1012,4 hPa 0,0 l/m 0 min 0 min 1,5 UV-I 274 W/m 14,6 km/h (3 Bft)
14.07.2014 11:48 17,6 C 17,2 C 94 % 1012,5 hPa 0,0 l/m 0 min 0 min 1,2 UV-I 236 W/m 16,7 km/h (3 Bft)
14.07.2014 11:50 17,7 C 16,7 C 94 % 1012,5 hPa 0,0 l/m 0 min 0 min 0,8 UV-I 165 W/m 18,8 km/h (3 Bft)
14.07.2014 11:52 17,7 C 16,7 C 94 % 1012,5 hPa 0,0 l/m 0 min 0 min 0,6 UV-I 156 W/m 16,7 km/h (3 Bft)
14.07.2014 11:54 17,7 C 16,7 C 94 % 1012,6 hPa 0,0 l/m 0 min 0 min 0,6 UV-I 160 W/m 20,9 km/h (4 Bft)
14.07.2014 11:56 17,6 C 16,7 C 94 % 1012,6 hPa 0,0 l/m 0 min 0 min 0,6 UV-I 155 W/m 23,0 km/h (4 Bft)
14.07.2014 11:58 17,6 C 16,7 C 94 % 1012,6 hPa 0,0 l/m 0 min 0 min 0,7 UV-I 171 W/m 16,7 km/h (3 Bft)
14.07.2014 12:00 17,6 C 16,7 C 94 % 1012,6 hPa 0,0 l/m 0 min 0 min 0,6 UV-I 155 W/m 16,7 km/h (3 Bft)
14.07.2014 12:02 17,6 C 16,7 C 94 % 1012,6 hPa 0,0 l/m 0 min 0 min 0,8 UV-I 188 W/m 14,6 km/h (3 Bft)
14.07.2014 12:06 17,6 C 16,7 C 94 % 1012,6 hPa 0,0 l/m 0 min 0 min 1,2 UV-I 255 W/m 23,0 km/h (4 Bft)
14.07.2014 12:08 17,6 C 16,7 C 94 % 1012,7 hPa 0,0 l/m 0 min 0 min 1,2 UV-I 271 W/m 20,9 km/h (4 Bft)
14.07.2014 12:10 17,7 C 17,2 C 94 % 1012,7 hPa 0,0 l/m 0 min 0 min 1,3 UV-I 279 W/m 18,8 km/h (3 Bft)
14.07.2014 12:12 17,7 C 16,7 C 94 % 1012,7 hPa 0,0 l/m 0 min 0 min 1,3 UV-I 267 W/m 18,8 km/h (3 Bft)
14.07.2014 12:14 17,8 C 16,7 C 95 % 1012,7 hPa 0,0 l/m 0 min 0 min 1,6 UV-I 313 W/m 25,1 km/h (4 Bft)
14.07.2014 12:16 17,9 C 17,2 C 94 % 1012,8 hPa 0,0 l/m 0 min 0 min 1,5 UV-I 283 W/m 20,9 km/h (4 Bft)
14.07.2014 12:18 18,0 C 17,2 C 94 % 1012,8 hPa 0,0 l/m 0 min 0 min 1,3 UV-I 248 W/m 18,8 km/h (3 Bft)
14.07.2014 12:20 18,1 C 17,2 C 94 % 1012,8 hPa 0,0 l/m 0 min 0 min 0,9 UV-I 206 W/m 25,1 km/h (4 Bft)
14.07.2014 12:22 18,1 C 17,2 C 93 % 1012,8 hPa 0,0 l/m 0 min 0 min 1,2 UV-I 227 W/m 31,4 km/h (5 Bft)
14.07.2014 12:24 18,0 C 16,7 C 93 % 1012,9 hPa 0,0 l/m 0 min 0 min 1,2 UV-I 225 W/m 25,1 km/h (4 Bft)
14.07.2014 12:26 18,0 C 17,2 C 93 % 1012,9 hPa 0,0 l/m 0 min 0 min 1,4 UV-I 257 W/m 20,9 km/h (4 Bft)
14.07.2014 12:28 18,0 C 17,2 C 93 % 1012,9 hPa 0,0 l/m 0 min 0 min 1,5 UV-I 260 W/m 20,9 km/h (4 Bft)
14.07.2014 12:30 18,1 C 17,2 C 93 % 1012,9 hPa 0,0 l/m 0 min 0 min 1,8 UV-I 295 W/m 27,2 km/h (4 Bft)
14.07.2014 12:32 18,2 C 17,8 C 93 % 1012,9 hPa 0,0 l/m 0 min 0 min 1,6 UV-I 279 W/m 16,7 km/h (3 Bft)
14.07.2014 12:34 18,3 C 17,8 C 93 % 1012,9 hPa 0,0 l/m 0 min 0 min 1,3 UV-I 251 W/m 18,8 km/h (3 Bft)
14.07.2014 12:36 18,3 C 17,8 C 93 % 1013,0 hPa 0,0 l/m 0 min 0 min 2,0 UV-I 313 W/m 20,9 km/h (4 Bft)
14.07.2014 12:38 18,5 C 18,3 C 93 % 1013,0 hPa 0,0 l/m 0 min 0 min 2,4 UV-I 381 W/m 12,6 km/h (3 Bft)
14.07.2014 12:40 18,6 C 18,3 C 93 % 1013,0 hPa 0,0 l/m 0 min 0 min 2,0 UV-I 316 W/m 20,9 km/h (4 Bft)
14.07.2014 12:42 18,6 C 18,3 C 93 % 1013,0 hPa 0,0 l/m 0 min 0 min 1,8 UV-I 241 W/m 12,6 km/h (3 Bft)
14.07.2014 12:44 18,7 C 17,8 C 92 % 1013,1 hPa 0,0 l/m 0 min 0 min 1,2 UV-I 207 W/m 12,6 km/h (3 Bft)
14.07.2014 12:46 18,6 C 17,8 C 92 % 1013,1 hPa 0,0 l/m 0 min 0 min 1,7 UV-I 257 W/m 18,8 km/h (3 Bft)
14.07.2014 12:48 18,6 C 18,3 C 92 % 1013,1 hPa 0,0 l/m 0 min 0 min 2,0 UV-I 262 W/m 12,6 km/h (3 Bft)
14.07.2014 12:50 18,7 C 18,3 C 92 % 1013,1 hPa 0,0 l/m 0 min 0 min 1,7 UV-I 264 W/m 16,7 km/h (3 Bft)
14.07.2014 12:52 18,7 C 18,3 C 92 % 1013,1 hPa 0,0 l/m 0 min 0 min 1,5 UV-I 225 W/m 20,9 km/h (4 Bft)
14.07.2014 12:54 18,6 C 18,3 C 92 % 1013,0 hPa 0,0 l/m 0 min 0 min 1,0 UV-I 193 W/m 18,8 km/h (3 Bft)
14.07.2014 12:56 18,4 C 18,3 C 92 % 1013,1 hPa 0,0 l/m 0 min 0 min 1,6 UV-I 230 W/m 25,1 km/h (4 Bft)
14.07.2014 12:58 18,3 C 18,3 C 91 % 1013,1 hPa 0,0 l/m 0 min 0 min 2,4 UV-I 329 W/m 18,8 km/h (3 Bft)
14.07.2014 13:00 18,5 C 18,9 C 92 % 1013,1 hPa 0,0 l/m 0 min 0 min 2,3 UV-I 309 W/m 25,1 km/h (4 Bft)
14.07.2014 13:02 18,6 C 18,9 C 92 % 1013,1 hPa 0,0 l/m 0 min 0 min 2,2 UV-I 301 W/m 23,0 km/h (4 Bft)
14.07.2014 13:04 18,6 C 18,9 C 92 % 1013,2 hPa 0,0 l/m 0 min 0 min 2,1 UV-I 332 W/m 18,8 km/h (3 Bft)
14.07.2014 13:06 18,7 C 18,9 C 92 % 1013,2 hPa 0,0 l/m 0 min 0 min 1,6 UV-I 234 W/m 16,7 km/h (3 Bft)
14.07.2014 13:08 18,7 C 18,9 C 92 % 1013,1 hPa 0,0 l/m 0 min 0 min 2,0 UV-I 304 W/m 20,9 km/h (4 Bft)
14.07.2014 13:10 18,8 C 19,4 C 92 % 1013,2 hPa 0,0 l/m 0 min 0 min 2,2 UV-I 325 W/m 20,9 km/h (4 Bft)
14.07.2014 13:12 19,0 C 19,4 C 92 % 1013,2 hPa 0,0 l/m 0 min 0 min 2,0 UV-I 308 W/m 16,7 km/h (3 Bft)
14.07.2014 13:14 19,1 C 19,4 C 92 % 1013,2 hPa 0,0 l/m 0 min 0 min 1,3 UV-I 239 W/m 16,7 km/h (3 Bft)
14.07.2014 13:16 19,1 C 19,4 C 91 % 1013,2 hPa 0,0 l/m 0 min 0 min 1,9 UV-I 294 W/m 29,3 km/h (5 Bft)
14.07.2014 13:18 19,0 C 19,4 C 91 % 1013,3 hPa 0,0 l/m 0 min 0 min 1,4 UV-I 236 W/m 23,0 km/h (4 Bft)
14.07.2014 13:20 19,0 C 18,9 C 91 % 1013,3 hPa 0,0 l/m 0 min 0 min 1,3 UV-I 236 W/m 20,9 km/h (4 Bft)
14.07.2014 13:22 18,9 C 18,9 C 91 % 1013,3 hPa 0,0 l/m 0 min 0 min 1,2 UV-I 220 W/m 25,1 km/h (4 Bft)
14.07.2014 13:24 18,9 C 18,9 C 91 % 1013,4 hPa 0,0 l/m 0 min 0 min 1,5 UV-I 251 W/m 20,9 km/h (4 Bft)
14.07.2014 13:26 18,9 C 18,9 C 91 % 1013,4 hPa 0,0 l/m 0 min 0 min 1,3 UV-I 234 W/m 16,7 km/h (3 Bft)
14.07.2014 13:28 18,9 C 18,9 C 91 % 1013,3 hPa 0,0 l/m 0 min 0 min 1,0 UV-I 207 W/m 23,0 km/h (4 Bft)
14.07.2014 13:30 18,9 C 18,9 C 91 % 1013,4 hPa 0,0 l/m 0 min 0 min 1,5 UV-I 274 W/m 14,6 km/h (3 Bft)
14.07.2014 13:32 18,9 C 18,9 C 91 % 1013,4 hPa 0,0 l/m 0 min 0 min 1,5 UV-I 267 W/m 14,6 km/h (3 Bft)
14.07.2014 13:34 18,9 C 18,9 C 91 % 1013,5 hPa 0,0 l/m 0 min 0 min 1,3 UV-I 251 W/m 18,8 km/h (3 Bft)
14.07.2014 13:36 18,9 C 18,9 C 91 % 1013,5 hPa 0,0 l/m 0 min 0 min 1,4 UV-I 262 W/m 18,8 km/h (3 Bft)
14.07.2014 13:38 18,9 C 19,4 C 91 % 1013,4 hPa 0,0 l/m 0 min 0 min 1,5 UV-I 274 W/m 18,8 km/h (3 Bft)
14.07.2014 13:40 19,1 C 19,4 C 91 % 1013,4 hPa 0,0 l/m 0 min 0 min 1,8 UV-I 299 W/m 14,6 km/h (3 Bft)
14.07.2014 13:42 19,1 C 19,4 C 91 % 1013,5 hPa 0,0 l/m 0 min 0 min 1,9 UV-I 320 W/m 14,6 km/h (3 Bft)
14.07.2014 13:44 19,2 C 20,0 C 91 % 1013,5 hPa 0,0 l/m 0 min 0 min 1,8 UV-I 302 W/m 10,5 km/h (2 Bft)
14.07.2014 13:46 19,2 C 20,0 C 91 % 1013,5 hPa 0,0 l/m 0 min 0 min 2,0 UV-I 336 W/m 12,6 km/h (3 Bft)
14.07.2014 13:48 19,2 C 20,0 C 91 % 1013,5 hPa 0,0 l/m 0 min 0 min 2,2 UV-I 350 W/m 10,5 km/h (2 Bft)
14.07.2014 13:50 19,3 C 20,0 C 91 % 1013,5 hPa 0,0 l/m 0 min 0 min 2,2 UV-I 357 W/m 14,6 km/h (3 Bft)
14.07.2014 13:52 19,4 C 20,0 C 91 % 1013,5 hPa 0,0 l/m 0 min 0 min 2,0 UV-I 341 W/m 14,6 km/h (3 Bft)
14.07.2014 13:54 19,5 C 20,6 C 91 % 1013,5 hPa 0,0 l/m 0 min 0 min 2,3 UV-I 381 W/m 12,6 km/h (3 Bft)
14.07.2014 13:56 19,6 C 20,6 C 91 % 1013,5 hPa 0,0 l/m 0 min 0 min 2,4 UV-I 387 W/m 14,6 km/h (3 Bft)
14.07.2014 13:58 19,8 C 20,6 C 91 % 1013,5 hPa 0,0 l/m 0 min 0 min 2,1 UV-I 353 W/m 14,6 km/h (3 Bft)
14.07.2014 14:00 19,8 C 20,6 C 90 % 1013,5 hPa 0,0 l/m 0 min 0 min 2,3 UV-I 378 W/m 10,5 km/h (2 Bft)
14.07.2014 14:02 19,9 C 20,6 C 90 % 1013,5 hPa 0,0 l/m 0 min 0 min 2,3 UV-I 376 W/m 12,6 km/h (3 Bft)
14.07.2014 14:04 20,1 C 21,1 C 90 % 1013,5 hPa 0,0 l/m 0 min 0 min 2,1 UV-I 353 W/m 10,5 km/h (2 Bft)
14.07.2014 14:06 20,2 C 21,1 C 90 % 1013,5 hPa 0,0 l/m 0 min 0 min 1,9 UV-I 316 W/m 10,5 km/h (2 Bft)
14.07.2014 14:08 20,2 C 20,6 C 89 % 1013,6 hPa 0,0 l/m 0 min 0 min 1,8 UV-I 316 W/m 18,8 km/h (3 Bft)
14.07.2014 14:10 20,1 C 20,6 C 88 % 1013,6 hPa 0,0 l/m 0 min 0 min 1,9 UV-I 329 W/m 16,7 km/h (3 Bft)
14.07.2014 14:12 20,0 C 20,6 C 88 % 1013,5 hPa 0,0 l/m 0 min 0 min 2,1 UV-I 345 W/m 16,7 km/h (3 Bft)
14.07.2014 14:14 19,9 C 20,6 C 89 % 1013,5 hPa 0,0 l/m 0 min 0 min 2,2 UV-I 369 W/m 14,6 km/h (3 Bft)
14.07.2014 14:16 20,0 C 20,6 C 89 % 1013,5 hPa 0,0 l/m 2 min 0 min 2,3 UV-I 415 W/m 18,8 km/h (3 Bft)
14.07.2014 14:18 20,1 C 21,1 C 88 % 1013,5 hPa 0,0 l/m 2 min 0 min 2,9 UV-I 469 W/m 12,6 km/h (3 Bft)
14.07.2014 14:20 20,4 C 21,7 C 89 % 1013,5 hPa 0,0 l/m 2 min 0 min 3,0 UV-I 499 W/m 10,5 km/h (2 Bft)
14.07.2014 14:22 20,6 C 21,7 C 88 % 1013,6 hPa 0,0 l/m 2 min 0 min 2,7 UV-I 417 W/m 16,7 km/h (3 Bft)
14.07.2014 14:24 20,6 C 21,1 C 87 % 1013,6 hPa 0,0 l/m 0 min 0 min 2,5 UV-I 408 W/m 23,0 km/h (4 Bft)
14.07.2014 14:26 20,5 C 21,1 C 86 % 1013,6 hPa 0,0 l/m 2 min 0 min 2,6 UV-I 417 W/m 20,9 km/h (4 Bft)
14.07.2014 14:28 20,6 C 21,1 C 87 % 1013,6 hPa 0,0 l/m 2 min 0 min 2,6 UV-I 445 W/m 14,6 km/h (3 Bft)
14.07.2014 14:30 20,6 C 21,1 C 87 % 1013,5 hPa 0,0 l/m 2 min 0 min 3,1 UV-I 522 W/m 18,8 km/h (3 Bft)
14.07.2014 14:32 20,8 C 21,7 C 88 % 1013,5 hPa 0,0 l/m 2 min 0 min 3,8 UV-I 615 W/m 8,4 km/h (2 Bft)
14.07.2014 14:34 21,2 C 22,2 C 87 % 1013,5 hPa 0,0 l/m 2 min 0 min 4,2 UV-I 615 W/m 20,9 km/h (4 Bft)
14.07.2014 14:36 21,4 C 22,8 C 86 % 1013,6 hPa 0,0 l/m 2 min 0 min 4,2 UV-I 615 W/m 23,0 km/h (4 Bft)
14.07.2014 14:38 21,6 C 22,8 C 84 % 1013,6 hPa 0,0 l/m 2 min 0 min 3,2 UV-I 615 W/m 25,1 km/h (4 Bft)
14.07.2014 14:40 21,7 C 22,8 C 83 % 1013,6 hPa 0,0 l/m 2 min 0 min 2,6 UV-I 431 W/m 18,8 km/h (3 Bft)
14.07.2014 14:42 21,5 C 22,2 C 83 % 1013,6 hPa 0,0 l/m 2 min 0 min 2,9 UV-I 431 W/m 20,9 km/h (4 Bft)
14.07.2014 14:44 21,3 C 21,7 C 83 % 1013,5 hPa 0,0 l/m 0 min 0 min 2,4 UV-I 394 W/m 18,8 km/h (3 Bft)
14.07.2014 14:46 21,3 C 21,7 C 84 % 1013,6 hPa 0,0 l/m 0 min 0 min 2,6 UV-I 394 W/m 14,6 km/h (3 Bft)
14.07.2014 14:48 21,5 C 22,2 C 86 % 1013,6 hPa 0,0 l/m 2 min 0 min 3,0 UV-I 506 W/m 23,0 km/h (4 Bft)
14.07.2014 14:50 21,6 C 22,2 C 85 % 1013,6 hPa 0,0 l/m 2 min 0 min 3,1 UV-I 601 W/m 16,7 km/h (3 Bft)
14.07.2014 14:52 21,5 C 22,2 C 85 % 1013,6 hPa 0,0 l/m 2 min 0 min 3,2 UV-I 504 W/m 14,6 km/h (3 Bft)
14.07.2014 14:54 21,6 C 22,2 C 85 % 1013,6 hPa 0,0 l/m 2 min 0 min 2,7 UV-I 417 W/m 16,7 km/h (3 Bft)
14.07.2014 14:56 21,6 C 22,2 C 84 % 1013,6 hPa 0,0 l/m 2 min 0 min 3,3 UV-I 499 W/m 16,7 km/h (3 Bft)
14.07.2014 14:58 21,6 C 22,2 C 84 % 1013,6 hPa 0,0 l/m 2 min 0 min 2,8 UV-I 696 W/m 25,1 km/h (4 Bft)
14.07.2014 15:00 21,7 C 22,2 C 84 % 1013,6 hPa 0,0 l/m 2 min 0 min 2,7 UV-I 504 W/m 23,0 km/h (4 Bft)
14.07.2014 15:02 22,1 C 22,8 C 84 % 1013,6 hPa 0,0 l/m 2 min 0 min 4,3 UV-I 1011 W/m 18,8 km/h (3 Bft)
14.07.2014 15:04 22,5 C 23,3 C 84 % 1013,6 hPa 0,0 l/m 2 min 0 min 3,0 UV-I 1079 W/m 20,9 km/h (4 Bft)
14.07.2014 15:06 22,6 C 23,3 C 82 % 1013,6 hPa 0,0 l/m 0 min 0 min 2,7 UV-I 373 W/m 23,0 km/h (4 Bft)
14.07.2014 15:08 22,4 C 22,8 C 80 % 1013,6 hPa 0,0 l/m 2 min 0 min 3,0 UV-I 475 W/m 23,0 km/h (4 Bft)
14.07.2014 15:10 22,6 C 23,3 C 83 % 1013,7 hPa 0,0 l/m 2 min 0 min 4,5 UV-I 970 W/m 14,6 km/h (3 Bft)
14.07.2014 15:12 22,8 C 23,9 C 79 % 1013,7 hPa 0,0 l/m 2 min 0 min 3,2 UV-I 970 W/m 27,2 km/h (4 Bft)
14.07.2014 15:14 22,8 C 23,9 C 81 % 1013,7 hPa 0,0 l/m 2 min 0 min 3,4 UV-I 633 W/m 16,7 km/h (3 Bft)
14.07.2014 15:16 22,8 C 23,9 C 80 % 1013,7 hPa 0,0 l/m 2 min 0 min 3,1 UV-I 584 W/m 18,8 km/h (3 Bft)
14.07.2014 15:18 22,8 C 23,9 C 81 % 1013,7 hPa 0,0 l/m 2 min 0 min 2,9 UV-I 468 W/m 14,6 km/h (3 Bft)
14.07.2014 15:20 22,7 C 23,9 C 81 % 1013,6 hPa 0,0 l/m 2 min 0 min 2,6 UV-I 524 W/m 16,7 km/h (3 Bft)
14.07.2014 15:22 22,5 C 22,8 C 79 % 1013,7 hPa 0,0 l/m 0 min 0 min 1,6 UV-I 218 W/m 18,8 km/h (3 Bft)
14.07.2014 15:24 22,3 C 22,2 C 80 % 1013,7 hPa 0,0 l/m 0 min 0 min 1,2 UV-I 200 W/m 20,9 km/h (4 Bft)
14.07.2014 15:26 22,0 C 21,7 C 80 % 1013,7 hPa 0,0 l/m 0 min 0 min 1,0 UV-I 186 W/m 25,1 km/h (4 Bft)
14.07.2014 15:28 21,8 C 21,1 C 81 % 1013,7 hPa 0,0 l/m 0 min 2 min 0,6 UV-I 141 W/m 16,7 km/h (3 Bft)
14.07.2014 15:30 21,7 C 20,6 C 82 % 1013,7 hPa 0,0 l/m 0 min 0 min 0,5 UV-I 116 W/m 12,6 km/h (3 Bft)
14.07.2014 15:32 21,5 C 20,6 C 83 % 1013,8 hPa 0,0 l/m 0 min 2 min 0,0 UV-I 95 W/m 12,6 km/h (3 Bft)
14.07.2014 15:34 21,3 C 20,0 C 83 % 1013,7 hPa 0,0 l/m 0 min 2 min 0,0 UV-I 90 W/m 16,7 km/h (3 Bft)
14.07.2014 15:36 21,3 C 20,0 C 83 % 1013,7 hPa 0,0 l/m 0 min 0 min 0,0 UV-I 84 W/m 10,5 km/h (2 Bft)
14.07.2014 15:38 21,1 C 20,0 C 83 % 1013,8 hPa 0,0 l/m 0 min 0 min 0,0 UV-I 77 W/m 14,6 km/h (3 Bft)
14.07.2014 15:40 21,1 C 19,4 C 84 % 1013,7 hPa 0,0 l/m 0 min 0 min 0,0 UV-I 76 W/m 16,7 km/h (3 Bft)
14.07.2014 15:42 21,0 C 19,4 C 84 % 1013,8 hPa 0,0 l/m 0 min 0 min 0,0 UV-I 77 W/m 8,4 km/h (2 Bft)
14.07.2014 15:44 20,9 C 19,4 C 85 % 1013,8 hPa 0,0 l/m 0 min 0 min 0,0 UV-I 88 W/m 12,6 km/h (3 Bft)
14.07.2014 15:46 20,9 C 19,4 C 85 % 1013,9 hPa 0,0 l/m 0 min 0 min 0,0 UV-I 98 W/m 6,3 km/h (2 Bft)
14.07.2014 15:48 20,8 C 19,4 C 86 % 1013,9 hPa 0,0 l/m 0 min 0 min 0,0 UV-I 111 W/m 6,3 km/h (2 Bft)
14.07.2014 15:50 20,8 C 19,4 C 86 % 1013,9 hPa 0,0 l/m 0 min 0 min 0,0 UV-I 134 W/m 8,4 km/h (2 Bft)
14.07.2014 15:52 20,8 C 19,4 C 86 % 1013,9 hPa 0,0 l/m 0 min 0 min 0,0 UV-I 141 W/m 8,4 km/h (2 Bft)
14.07.2014 15:54 20,8 C 20,0 C 86 % 1014,0 hPa 0,0 l/m 0 min 0 min 0,0 UV-I 167 W/m 4,2 km/h (1 Bft)
14.07.2014 15:56 21,0 C 20,0 C 87 % 1014,0 hPa 0,0 l/m 0 min 0 min 0,5 UV-I 213 W/m 2,1 km/h (1 Bft)
14.07.2014 15:58 21,1 C 20,0 C 86 % 1014,0 hPa 0,0 l/m 0 min 0 min 1,0 UV-I 267 W/m 16,7 km/h (3 Bft)
14.07.2014 16:00 21,1 C 20,6 C 84 % 1013,9 hPa 0,0 l/m 0 min 0 min 1,4 UV-I 343 W/m 12,6 km/h (3 Bft)
14.07.2014 16:02 21,3 C 21,1 C 82 % 1013,9 hPa 0,0 l/m 2 min 0 min 1,8 UV-I 415 W/m 14,6 km/h (3 Bft)
14.07.2014 16:04 21,7 C 21,7 C 83 % 1013,9 hPa 0,0 l/m 2 min 0 min 2,2 UV-I 448 W/m 12,6 km/h (3 Bft)
14.07.2014 16:06 21,9 C 23,3 C 80 % 1014,0 hPa 0,0 l/m 2 min 0 min 2,6 UV-I 687 W/m 16,7 km/h (3 Bft)
14.07.2014 16:08 22,2 C 26,1 C 79 % 1014,0 hPa 0,0 l/m 2 min 0 min 3,5 UV-I 687 W/m 16,7 km/h (3 Bft)
14.07.2014 16:10 22,5 C 25,0 C 79 % 1014,0 hPa 0,0 l/m 0 min 0 min 2,1 UV-I 345 W/m 18,8 km/h (3 Bft)
14.07.2014 16:12 22,4 C 23,9 C 76 % 1014,0 hPa 0,0 l/m 0 min 0 min 2,0 UV-I 308 W/m 18,8 km/h (3 Bft)
14.07.2014 16:14 22,3 C 22,8 C 76 % 1014,0 hPa 0,0 l/m 0 min 0 min 2,0 UV-I 297 W/m 16,7 km/h (3 Bft)
14.07.2014 16:16 22,2 C 22,8 C 77 % 1014,0 hPa 0,0 l/m 0 min 0 min 2,0 UV-I 315 W/m 16,7 km/h (3 Bft)
14.07.2014 16:18 22,2 C 23,3 C 77 % 1014,0 hPa 0,0 l/m 0 min 0 min 2,2 UV-I 332 W/m 6,3 km/h (2 Bft)
14.07.2014 16:20 22,2 C 22,8 C 78 % 1014,0 hPa 0,0 l/m 0 min 0 min 1,8 UV-I 285 W/m 12,6 km/h (3 Bft)
14.07.2014 16:22 22,2 C 22,8 C 77 % 1014,1 hPa 0,0 l/m 0 min 0 min 1,9 UV-I 308 W/m 10,5 km/h (2 Bft)
14.07.2014 16:24 22,2 C 23,3 C 76 % 1014,0 hPa 0,0 l/m 2 min 0 min 2,3 UV-I 411 W/m 16,7 km/h (3 Bft)
14.07.2014 16:26 22,4 C 23,9 C 74 % 1014,1 hPa 0,0 l/m 0 min 0 min 1,9 UV-I 311 W/m 18,8 km/h (3 Bft)
14.07.2014 16:28 22,5 C 23,9 C 73 % 1014,0 hPa 0,0 l/m 2 min 0 min 2,2 UV-I 360 W/m 16,7 km/h (3 Bft)
14.07.2014 16:30 22,6 C 25,0 C 72 % 1014,1 hPa 0,0 l/m 2 min 0 min 2,9 UV-I 450 W/m 14,6 km/h (3 Bft)
14.07.2014 16:32 22,9 C 26,1 C 72 % 1014,1 hPa 0,0 l/m 2 min 0 min 2,6 UV-I 696 W/m 14,6 km/h (3 Bft)
14.07.2014 16:34 23,2 C 27,2 C 68 % 1014,0 hPa 0,0 l/m 2 min 0 min 2,6 UV-I 656 W/m 20,9 km/h (4 Bft)
14.07.2014 16:36 23,4 C 27,2 C 70 % 1014,0 hPa 0,0 l/m 2 min 0 min 2,5 UV-I 656 W/m 23,0 km/h (4 Bft)
14.07.2014 16:38 23,7 C 27,2 C 71 % 1014,0 hPa 0,0 l/m 2 min 0 min 2,4 UV-I 526 W/m 18,8 km/h (3 Bft)
14.07.2014 16:40 23,8 C 27,2 C 69 % 1014,0 hPa 0,0 l/m 2 min 0 min 1,9 UV-I 694 W/m 18,8 km/h (3 Bft)
14.07.2014 16:42 23,5 C 25,6 C 66 % 1014,0 hPa 0,0 l/m 0 min 0 min 2,1 UV-I 283 W/m 27,2 km/h (4 Bft)
14.07.2014 16:44 23,3 C 25,6 C 69 % 1014,0 hPa 0,0 l/m 2 min 0 min 2,5 UV-I 459 W/m 23,0 km/h (4 Bft)
14.07.2014 16:46 23,4 C 26,1 C 69 % 1014,1 hPa 0,0 l/m 2 min 0 min 2,4 UV-I 707 W/m 14,6 km/h (3 Bft)
14.07.2014 16:48 23,7 C 25,6 C 69 % 1014,1 hPa 0,0 l/m 0 min 0 min 1,6 UV-I 301 W/m 18,8 km/h (3 Bft)
14.07.2014 16:50 23,6 C 25,0 C 67 % 1014,1 hPa 0,0 l/m 0 min 0 min 1,3 UV-I 202 W/m 18,8 km/h (3 Bft)
14.07.2014 16:52 23,4 C 23,9 C 67 % 1014,1 hPa 0,0 l/m 0 min 0 min 1,2 UV-I 186 W/m 20,9 km/h (4 Bft)
14.07.2014 16:54 23,1 C 23,3 C 67 % 1014,1 hPa 0,0 l/m 0 min 0 min 1,1 UV-I 214 W/m 23,0 km/h (4 Bft)
14.07.2014 16:56 22,8 C 22,8 C 68 % 1014,1 hPa 0,0 l/m 0 min 0 min 1,1 UV-I 230 W/m 18,8 km/h (3 Bft)
14.07.2014 16:58 22,7 C 22,8 C 69 % 1014,1 hPa 0,0 l/m 0 min 0 min 1,5 UV-I 230 W/m 16,7 km/h (3 Bft)
14.07.2014 17:00 22,6 C 22,8 C 69 % 1014,1 hPa 0,0 l/m 2 min 0 min 1,3 UV-I 339 W/m 14,6 km/h (3 Bft)
14.07.2014 17:02 22,8 C 22,8 C 71 % 1014,1 hPa 0,0 l/m 2 min 0 min 2,0 UV-I 339 W/m 23,0 km/h (4 Bft)
14.07.2014 17:04 23,1 C 23,3 C 69 % 1014,1 hPa 0,0 l/m 2 min 0 min 1,9 UV-I 629 W/m 18,8 km/h (3 Bft)
14.07.2014 17:06 23,3 C 23,3 C 67 % 1014,1 hPa 0,0 l/m 2 min 0 min 1,8 UV-I 629 W/m 18,8 km/h (3 Bft)
14.07.2014 17:08 23,5 C 23,3 C 67 % 1014,1 hPa 0,0 l/m 2 min 0 min 1,8 UV-I 587 W/m 16,7 km/h (3 Bft)
14.07.2014 17:10 23,8 C 23,3 C 66 % 1014,2 hPa 0,0 l/m 2 min 0 min 1,6 UV-I 550 W/m 20,9 km/h (4 Bft)
14.07.2014 17:12 23,9 C 23,3 C 67 % 1014,1 hPa 0,0 l/m 2 min 0 min 1,5 UV-I 570 W/m 14,6 km/h (3 Bft)
14.07.2014 17:14 23,8 C 22,8 C 66 % 1014,0 hPa 0,0 l/m 2 min 0 min 1,3 UV-I 545 W/m 12,6 km/h (3 Bft)
14.07.2014 17:16 23,8 C 22,8 C 65 % 1014,1 hPa 0,0 l/m 2 min 0 min 1,2 UV-I 561 W/m 16,7 km/h (3 Bft)
14.07.2014 17:18 23,9 C 22,8 C 65 % 1014,0 hPa 0,0 l/m 2 min 0 min 1,2 UV-I 564 W/m 18,8 km/h (3 Bft)
14.07.2014 17:20 23,9 C 22,8 C 65 % 1014,0 hPa 0,0 l/m 0 min 0 min 1,1 UV-I 211 W/m 14,6 km/h (3 Bft)
14.07.2014 17:22 23,7 C 22,8 C 65 % 1014,1 hPa 0,0 l/m 0 min 0 min 1,1 UV-I 265 W/m 18,8 km/h (3 Bft)
14.07.2014 17:24 23,5 C 22,2 C 64 % 1014,1 hPa 0,0 l/m 0 min 0 min 1,0 UV-I 244 W/m 16,7 km/h (3 Bft)
14.07.2014 17:26 23,3 C 22,2 C 66 % 1014,2 hPa 0,0 l/m 0 min 0 min 0,9 UV-I 241 W/m 25,1 km/h (4 Bft)
14.07.2014 17:28 23,2 C 21,7 C 67 % 1014,3 hPa 0,0 l/m 2 min 0 min 0,9 UV-I 309 W/m 20,9 km/h (4 Bft)
14.07.2014 17:30 23,3 C 22,2 C 66 % 1014,2 hPa 0,0 l/m 2 min 0 min 1,0 UV-I 610 W/m 20,9 km/h (4 Bft)
14.07.2014 17:32 23,4 C 22,2 C 66 % 1014,3 hPa 0,0 l/m 0 min 0 min 0,9 UV-I 243 W/m 12,6 km/h (3 Bft)
14.07.2014 17:34 23,6 C 22,2 C 65 % 1014,3 hPa 0,0 l/m 2 min 0 min 0,9 UV-I 587 W/m 25,1 km/h (4 Bft)
14.07.2014 17:36 23,7 C 22,2 C 66 % 1014,2 hPa 0,0 l/m 2 min 0 min 1,0 UV-I 594 W/m 18,8 km/h (3 Bft)
14.07.2014 17:38 23,9 C 22,8 C 67 % 1014,4 hPa 0,0 l/m 2 min 0 min 1,0 UV-I 563 W/m 20,9 km/h (4 Bft)
14.07.2014 17:40 23,8 C 22,2 C 65 % 1014,4 hPa 0,0 l/m 2 min 0 min 0,9 UV-I 501 W/m 23,0 km/h (4 Bft)
14.07.2014 17:42 23,7 C 22,2 C 66 % 1014,3 hPa 0,0 l/m 0 min 0 min 0,8 UV-I 176 W/m 18,8 km/h (3 Bft)
14.07.2014 17:44 23,4 C 21,7 C 66 % 1014,5 hPa 0,0 l/m 0 min 0 min 0,8 UV-I 169 W/m 12,6 km/h (3 Bft)
14.07.2014 17:46 23,3 C 21,7 C 66 % 1014,4 hPa 0,0 l/m 2 min 0 min 0,8 UV-I 531 W/m 10,5 km/h (2 Bft)
14.07.2014 17:48 23,3 C 21,7 C 67 % 1014,3 hPa 0,0 l/m 2 min 0 min 0,8 UV-I 489 W/m 20,9 km/h (4 Bft)
14.07.2014 17:50 23,3 C 21,7 C 64 % 1014,3 hPa 0,0 l/m 2 min 0 min 0,8 UV-I 489 W/m 27,2 km/h (4 Bft)
14.07.2014 17:52 23,2 C 21,7 C 67 % 1014,4 hPa 0,0 l/m 2 min 0 min 0,7 UV-I 490 W/m 20,9 km/h (4 Bft)
14.07.2014 17:54 23,2 C 21,7 C 66 % 1014,4 hPa 0,0 l/m 0 min 0 min 0,6 UV-I 174 W/m 14,6 km/h (3 Bft)
14.07.2014 17:56 23,1 C 21,7 C 67 % 1014,4 hPa 0,0 l/m 2 min 0 min 0,5 UV-I 432 W/m 20,9 km/h (4 Bft)
14.07.2014 17:58 23,1 C 21,7 C 67 % 1014,4 hPa 0,0 l/m 2 min 0 min 0,5 UV-I 285 W/m 25,1 km/h (4 Bft)
14.07.2014 18:00 23,0 C 21,1 C 66 % 1014,5 hPa 0,0 l/m 2 min 0 min 0,5 UV-I 260 W/m 14,6 km/h (3 Bft)
14.07.2014 18:02 22,9 C 21,1 C 65 % 1014,4 hPa 0,0 l/m 2 min 0 min 0,5 UV-I 309 W/m 20,9 km/h (4 Bft)
14.07.2014 18:06 22,7 C 21,1 C 67 % 1014,5 hPa 0,0 l/m 0 min 0 min 0,5 UV-I 149 W/m 16,7 km/h (3 Bft)
14.07.2014 18:08 22,5 C 21,1 C 68 % 1014,4 hPa 0,0 l/m 0 min 0 min 0,5 UV-I 178 W/m 10,5 km/h (2 Bft)
14.07.2014 18:10 22,4 C 21,1 C 68 % 1014,4 hPa 0,0 l/m 2 min 0 min 0,0 UV-I 336 W/m 18,8 km/h (3 Bft)
14.07.2014 18:12 22,4 C 21,1 C 68 % 1014,4 hPa 0,0 l/m 0 min 0 min 0,0 UV-I 223 W/m 12,6 km/h (3 Bft)
14.07.2014 18:14 22,4 C 21,1 C 69 % 1014,4 hPa 0,0 l/m 0 min 0 min 0,0 UV-I 199 W/m 14,6 km/h (3 Bft)
14.07.2014 18:16 22,4 C 21,1 C 69 % 1014,4 hPa 0,0 l/m 0 min 0 min 0,0 UV-I 156 W/m 27,2 km/h (4 Bft)
14.07.2014 18:18 22,4 C 21,1 C 67 % 1014,4 hPa 0,0 l/m 0 min 0 min 0,0 UV-I 169 W/m 23,0 km/h (4 Bft)
14.07.2014 18:20 22,3 C 20,6 C 68 % 1014,4 hPa 0,0 l/m 0 min 0 min 0,0 UV-I 165 W/m 18,8 km/h (3 Bft)
14.07.2014 18:22 22,2 C 20,6 C 67 % 1014,3 hPa 0,0 l/m 2 min 0 min 0,0 UV-I 241 W/m 20,9 km/h (4 Bft)
14.07.2014 18:24 22,2 C 20,6 C 68 % 1014,4 hPa 0,0 l/m 2 min 0 min 0,0 UV-I 320 W/m 12,6 km/h (3 Bft)
14.07.2014 18:26 22,2 C 20,6 C 67 % 1014,4 hPa 0,0 l/m 2 min 0 min 0,0 UV-I 336 W/m 18,8 km/h (3 Bft)
14.07.2014 18:28 22,3 C 20,6 C 66 % 1014,4 hPa 0,0 l/m 2 min 0 min 0,0 UV-I 367 W/m 20,9 km/h (4 Bft)
14.07.2014 18:30 22,4 C 20,6 C 68 % 1014,4 hPa 0,0 l/m 2 min 0 min 0,0 UV-I 374 W/m 12,6 km/h (3 Bft)
14.07.2014 18:32 22,5 C 21,1 C 66 % 1014,4 hPa 0,0 l/m 2 min 0 min 0,0 UV-I 366 W/m 14,6 km/h (3 Bft)
14.07.2014 18:34 22,6 C 20,6 C 66 % 1014,4 hPa 0,0 l/m 2 min 0 min 0,0 UV-I 290 W/m 18,8 km/h (3 Bft)
14.07.2014 18:36 22,6 C 20,6 C 66 % 1014,4 hPa 0,0 l/m 2 min 0 min 0,0 UV-I 290 W/m 18,8 km/h (3 Bft)
14.07.2014 18:38 22,6 C 20,6 C 65 % 1014,4 hPa 0,0 l/m 2 min 0 min 0,0 UV-I 251 W/m 16,7 km/h (3 Bft)
14.07.2014 18:40 22,5 C 20,6 C 67 % 1014,4 hPa 0,0 l/m 2 min 0 min 0,0 UV-I 283 W/m 10,5 km/h (2 Bft)
14.07.2014 18:42 22,4 C 20,6 C 67 % 1014,4 hPa 0,0 l/m 2 min 0 min 0,0 UV-I 285 W/m 14,6 km/h (3 Bft)
14.07.2014 18:44 22,4 C 20,6 C 68 % 1014,4 hPa 0,0 l/m 2 min 0 min 0,0 UV-I 267 W/m 10,5 km/h (2 Bft)
14.07.2014 18:46 22,4 C 21,1 C 68 % 1014,4 hPa 0,0 l/m 2 min 0 min 0,0 UV-I 221 W/m 16,7 km/h (3 Bft)
14.07.2014 18:48 22,4 C 21,1 C 66 % 1014,5 hPa 0,0 l/m 2 min 0 min 0,0 UV-I 204 W/m 25,1 km/h (4 Bft)
14.07.2014 18:50 22,3 C 20,6 C 65 % 1014,5 hPa 0,0 l/m 0 min 0 min 0,0 UV-I 186 W/m 23,0 km/h (4 Bft)
14.07.2014 18:52 22,2 C 20,6 C 65 % 1014,6 hPa 0,0 l/m 0 min 0 min 0,0 UV-I 183 W/m 18,8 km/h (3 Bft)
14.07.2014 18:54 22,2 C 20,6 C 65 % 1014,6 hPa 0,0 l/m 0 min 0 min 0,0 UV-I 183 W/m 25,1 km/h (4 Bft)
14.07.2014 18:56 22,1 C 20,6 C 66 % 1014,6 hPa 0,0 l/m 0 min 0 min 0,0 UV-I 176 W/m 27,2 km/h (4 Bft)
14.07.2014 18:58 22,0 C 20,6 C 66 % 1014,6 hPa 0,0 l/m 2 min 0 min 0,0 UV-I 190 W/m 18,8 km/h (3 Bft)
14.07.2014 19:00 21,9 C 20,6 C 66 % 1014,6 hPa 0,0 l/m 0 min 0 min 0,0 UV-I 186 W/m 23,0 km/h (4 Bft)
14.07.2014 19:02 21,9 C 20,6 C 67 % 1014,6 hPa 0,0 l/m 0 min 0 min 0,0 UV-I 169 W/m 16,7 km/h (3 Bft)
14.07.2014 19:04 21,9 C 20,6 C 67 % 1014,7 hPa 0,0 l/m 0 min 0 min 0,0 UV-I 149 W/m 18,8 km/h (3 Bft)
14.07.2014 19:06 21,8 C 20,6 C 67 % 1014,7 hPa 0,0 l/m 0 min 0 min 0,0 UV-I 142 W/m 12,6 km/h (3 Bft)
14.07.2014 19:08 21,8 C 20,6 C 68 % 1014,8 hPa 0,0 l/m 0 min 0 min 0,0 UV-I 139 W/m 12,6 km/h (3 Bft)
14.07.2014 19:10 21,8 C 20,6 C 68 % 1014,7 hPa 0,0 l/m 0 min 0 min 0,0 UV-I 167 W/m 12,6 km/h (3 Bft)
14.07.2014 19:12 21,7 C 20,6 C 68 % 1014,8 hPa 0,0 l/m 2 min 0 min 0,0 UV-I 199 W/m 12,6 km/h (3 Bft)
14.07.2014 19:14 21,7 C 20,6 C 68 % 1014,8 hPa 0,0 l/m 0 min 0 min 0,0 UV-I 148 W/m 10,5 km/h (2 Bft)
14.07.2014 19:16 21,8 C 20,6 C 69 % 1014,8 hPa 0,0 l/m 0 min 0 min 0,0 UV-I 134 W/m 6,3 km/h (2 Bft)
14.07.2014 19:18 21,7 C 20,6 C 69 % 1014,8 hPa 0,0 l/m 0 min 0 min 0,0 UV-I 141 W/m 8,4 km/h (2 Bft)
14.07.2014 19:20 21,7 C 20,6 C 68 % 1014,8 hPa 0,0 l/m 2 min 0 min 0,0 UV-I 199 W/m 14,6 km/h (3 Bft)
14.07.2014 19:22 21,7 C 20,6 C 69 % 1014,8 hPa 0,0 l/m 2 min 0 min 0,0 UV-I 327 W/m 10,5 km/h (2 Bft)
14.07.2014 19:24 21,7 C 20,6 C 67 % 1014,8 hPa 0,0 l/m 2 min 0 min 0,0 UV-I 329 W/m 16,7 km/h (3 Bft)
14.07.2014 19:26 21,9 C 20,6 C 68 % 1014,7 hPa 0,0 l/m 2 min 0 min 0,0 UV-I 316 W/m 20,9 km/h (4 Bft)
14.07.2014 19:28 22,0 C 20,6 C 67 % 1014,8 hPa 0,0 l/m 2 min 0 min 0,0 UV-I 329 W/m 16,7 km/h (3 Bft)
14.07.2014 19:30 22,1 C 20,6 C 66 % 1014,8 hPa 0,0 l/m 2 min 0 min 0,0 UV-I 322 W/m 14,6 km/h (3 Bft)
14.07.2014 19:32 22,2 C 20,6 C 66 % 1014,8 hPa 0,0 l/m 2 min 0 min 0,0 UV-I 313 W/m 16,7 km/h (3 Bft)
14.07.2014 19:34 22,2 C 21,1 C 66 % 1014,8 hPa 0,0 l/m 2 min 0 min 0,0 UV-I 295 W/m 14,6 km/h (3 Bft)
14.07.2014 19:36 22,2 C 21,1 C 67 % 1014,8 hPa 0,0 l/m 2 min 0 min 0,0 UV-I 283 W/m 14,6 km/h (3 Bft)
14.07.2014 19:38 22,2 C 20,6 C 65 % 1014,8 hPa 0,0 l/m 2 min 0 min 0,0 UV-I 274 W/m 16,7 km/h (3 Bft)
14.07.2014 19:40 22,2 C 20,6 C 66 % 1014,8 hPa 0,0 l/m 2 min 0 min 0,0 UV-I 265 W/m 12,6 km/h (3 Bft)
14.07.2014 19:42 22,3 C 20,6 C 67 % 1014,8 hPa 0,0 l/m 2 min 0 min 0,0 UV-I 258 W/m 10,5 km/h (2 Bft)
14.07.2014 19:44 22,2 C 20,6 C 66 % 1014,8 hPa 0,0 l/m 2 min 0 min 0,0 UV-I 246 W/m 16,7 km/h (3 Bft)
14.07.2014 19:46 22,3 C 20,6 C 66 % 1014,9 hPa 0,0 l/m 2 min 0 min 0,0 UV-I 229 W/m 14,6 km/h (3 Bft)
14.07.2014 19:48 22,2 C 20,6 C 66 % 1014,9 hPa 0,0 l/m 2 min 0 min 0,0 UV-I 209 W/m 16,7 km/h (3 Bft)
14.07.2014 19:50 22,2 C 20,6 C 67 % 1014,9 hPa 0,0 l/m 2 min 0 min 0,0 UV-I 174 W/m 8,4 km/h (2 Bft)
14.07.2014 19:52 22,1 C 20,0 C 68 % 1014,9 hPa 0,0 l/m 2 min 0 min 0,0 UV-I 171 W/m 10,5 km/h (2 Bft)
14.07.2014 19:54 21,9 C 20,0 C 70 % 1014,9 hPa 0,0 l/m 2 min 0 min 0,0 UV-I 162 W/m 14,6 km/h (3 Bft)
14.07.2014 19:56 21,8 C 20,0 C 68 % 1014,9 hPa 0,0 l/m 2 min 0 min 0,0 UV-I 141 W/m 12,6 km/h (3 Bft)
14.07.2014 19:58 21,7 C 20,0 C 69 % 1014,9 hPa 0,0 l/m 0 min 0 min 0,0 UV-I 90 W/m 16,7 km/h (3 Bft)
14.07.2014 20:00 21,6 C 20,0 C 69 % 1014,9 hPa 0,0 l/m 0 min 0 min 0,0 UV-I 74 W/m 8,4 km/h (2 Bft)
14.07.2014 20:02 21,5 C 19,4 C 70 % 1014,9 hPa 0,0 l/m 2 min 0 min 0,0 UV-I 130 W/m 12,6 km/h (3 Bft)
14.07.2014 20:04 21,3 C 19,4 C 70 % 1015,0 hPa 0,0 l/m 2 min 0 min 0,0 UV-I 132 W/m 10,5 km/h (2 Bft)
14.07.2014 20:06 21,3 C 19,4 C 70 % 1015,0 hPa 0,0 l/m 2 min 0 min 0,0 UV-I 134 W/m 10,5 km/h (2 Bft)
14.07.2014 20:08 21,3 C 19,4 C 71 % 1015,0 hPa 0,0 l/m 0 min 0 min 0,0 UV-I 79 W/m 6,3 km/h (2 Bft)
14.07.2014 20:10 21,2 C 19,4 C 72 % 1015,0 hPa 0,0 l/m 2 min 0 min 0,0 UV-I 114 W/m 10,5 km/h (2 Bft)
14.07.2014 20:12 21,2 C 19,4 C 70 % 1015,0 hPa 0,0 l/m 2 min 0 min 0,0 UV-I 113 W/m 8,4 km/h (2 Bft)
14.07.2014 20:14 21,2 C 19,4 C 72 % 1015,0 hPa 0,0 l/m 2 min 0 min 0,0 UV-I 104 W/m 10,5 km/h (2 Bft)
14.07.2014 20:16 21,2 C 18,9 C 72 % 1015,1 hPa 0,0 l/m 2 min 0 min 0,0 UV-I 100 W/m 6,3 km/h (2 Bft)
14.07.2014 20:18 21,1 C 18,9 C 73 % 1015,1 hPa 0,0 l/m 0 min 0 min 0,0 UV-I 84 W/m 4,2 km/h (1 Bft)
14.07.2014 20:20 21,0 C 18,9 C 73 % 1015,1 hPa 0,0 l/m 0 min 0 min 0,0 UV-I 60 W/m 8,4 km/h (2 Bft)
14.07.2014 20:22 20,9 C 18,9 C 72 % 1015,1 hPa 0,0 l/m 0 min 0 min 0,0 UV-I 54 W/m 16,7 km/h (3 Bft)
14.07.2014 20:24 20,8 C 18,9 C 72 % 1015,2 hPa 0,0 l/m 0 min 0 min 0,0 UV-I 62 W/m 18,8 km/h (3 Bft)
14.07.2014 20:26 20,8 C 18,9 C 71 % 1015,2 hPa 0,0 l/m 0 min 0 min 0,0 UV-I 65 W/m 14,6 km/h (3 Bft)
14.07.2014 20:28 20,8 C 18,9 C 71 % 1015,2 hPa 0,0 l/m 0 min 0 min 0,0 UV-I 65 W/m 8,4 km/h (2 Bft)
14.07.2014 20:30 20,8 C 18,9 C 71 % 1015,3 hPa 0,0 l/m 0 min 0 min 0,0 UV-I 67 W/m 10,5 km/h (2 Bft)
14.07.2014 20:32 20,7 C 18,3 C 72 % 1015,3 hPa 0,0 l/m 0 min 0 min 0,0 UV-I 67 W/m 16,7 km/h (3 Bft)
14.07.2014 20:34 20,7 C 18,3 C 72 % 1015,3 hPa 0,0 l/m 0 min 0 min 0,0 UV-I 67 W/m 14,6 km/h (3 Bft)
14.07.2014 20:36 20,6 C 18,3 C 72 % 1015,3 hPa 0,0 l/m 0 min 0 min 0,0 UV-I 65 W/m 8,4 km/h (2 Bft)
14.07.2014 20:38 20,6 C 18,3 C 72 % 1015,3 hPa 0,0 l/m 0 min 0 min 0,0 UV-I 62 W/m 10,5 km/h (2 Bft)
14.07.2014 20:40 20,5 C 18,3 C 73 % 1015,3 hPa 0,0 l/m 0 min 0 min 0,0 UV-I 60 W/m 12,6 km/h (3 Bft)
14.07.2014 20:42 20,4 C 18,3 C 73 % 1015,3 hPa 0,0 l/m 0 min 0 min 0,0 UV-I 62 W/m 12,6 km/h (3 Bft)
14.07.2014 20:44 20,4 C 18,3 C 73 % 1015,4 hPa 0,0 l/m 2 min 0 min 0,0 UV-I 63 W/m 10,5 km/h (2 Bft)
14.07.2014 20:46 20,4 C 18,3 C 74 % 1015,4 hPa 0,0 l/m 2 min 0 min 0,0 UV-I 63 W/m 4,2 km/h (1 Bft)
14.07.2014 20:48 20,3 C 18,3 C 74 % 1015,5 hPa 0,0 l/m 2 min 0 min 0,0 UV-I 62 W/m 6,3 km/h (2 Bft)
14.07.2014 20:50 20,2 C 18,3 C 74 % 1015,4 hPa 0,0 l/m 2 min 0 min 0,0 UV-I 56 W/m 10,5 km/h (2 Bft)
14.07.2014 20:52 20,2 C 18,3 C 74 % 1015,5 hPa 0,0 l/m 2 min 0 min 0,0 UV-I 54 W/m 4,2 km/h (1 Bft)
14.07.2014 20:54 20,1 C 18,3 C 74 % 1015,5 hPa 0,0 l/m 2 min 0 min 0,0 UV-I 51 W/m 0,0 km/h (0 Bft)
14.07.2014 20:56 20,1 C 17,8 C 75 % 1015,5 hPa 0,0 l/m 0 min 0 min 0,0 UV-I 47 W/m 2,1 km/h (1 Bft)
14.07.2014 20:58 20,1 C 17,8 C 74 % 1015,5 hPa 0,0 l/m 2 min 0 min 0,0 UV-I 46 W/m 6,3 km/h (2 Bft)
14.07.2014 21:00 20,1 C 17,8 C 75 % 1015,6 hPa 0,0 l/m 0 min 0 min 0,0 UV-I 42 W/m 6,3 km/h (2 Bft)
14.07.2014 21:02 19,9 C 17,8 C 76 % 1015,6 hPa 0,0 l/m 0 min 0 min 0,0 UV-I 39 W/m 6,3 km/h (2 Bft)
14.07.2014 21:04 19,9 C 17,8 C 75 % 1015,6 hPa 0,0 l/m 0 min 0 min 0,0 UV-I 33 W/m 8,4 km/h (2 Bft)
14.07.2014 21:06 19,8 C 17,8 C 76 % 1015,5 hPa 0,0 l/m 0 min 0 min 0,0 UV-I 28 W/m 0,0 km/h (0 Bft)
14.07.2014 21:08 19,7 C 17,8 C 76 % 1015,6 hPa 0,0 l/m 0 min 0 min 0,0 UV-I 25 W/m 10,5 km/h (2 Bft)
14.07.2014 21:10 19,7 C 17,2 C 76 % 1015,6 hPa 0,0 l/m 0 min 0 min 0,0 UV-I 23 W/m 10,5 km/h (2 Bft)
14.07.2014 21:12 19,6 C 17,2 C 76 % 1015,6 hPa 0,0 l/m 0 min 0 min 0,0 UV-I 21 W/m 8,4 km/h (2 Bft)
14.07.2014 21:14 19,5 C 17,2 C 77 % 1015,6 hPa 0,0 l/m 0 min 0 min 0,0 UV-I 21 W/m 8,4 km/h (2 Bft)
14.07.2014 21:16 19,4 C 17,2 C 76 % 1015,6 hPa 0,0 l/m 0 min 0 min 0,0 UV-I 21 W/m 6,3 km/h (2 Bft)
14.07.2014 21:18 19,4 C 17,2 C 77 % 1015,6 hPa 0,0 l/m 0 min 0 min 0,0 UV-I 19 W/m 2,1 km/h (1 Bft)
14.07.2014 21:20 19,3 C 16,7 C 77 % 1015,6 hPa 0,0 l/m 0 min 0 min 0,0 UV-I 18 W/m 8,4 km/h (2 Bft)
14.07.2014 21:22 19,2 C 16,7 C 78 % 1015,6 hPa 0,0 l/m 2 min 0 min 0,0 UV-I 18 W/m 0,0 km/h (0 Bft)
14.07.2014 21:24 19,1 C 16,7 C 78 % 1015,6 hPa 0,0 l/m 2 min 0 min 0,0 UV-I 16 W/m 2,1 km/h (1 Bft)
14.07.2014 21:26 19,0 C 16,7 C 78 % 1015,6 hPa 0,0 l/m 2 min 0 min 0,0 UV-I 14 W/m 0,0 km/h (0 Bft)
14.07.2014 21:28 18,9 C 16,7 C 79 % 1015,7 hPa 0,0 l/m 2 min 0 min 0,0 UV-I 12 W/m 0,0 km/h (0 Bft)
14.07.2014 21:30 18,8 C 16,1 C 79 % 1015,7 hPa 0,0 l/m 0 min 0 min 0,0 UV-I 11 W/m 2,1 km/h (1 Bft)
14.07.2014 21:32 18,8 C 16,1 C 79 % 1015,8 hPa 0,0 l/m 0 min 0 min 0,0 UV-I 9 W/m 0,0 km/h (0 Bft)
14.07.2014 21:34 18,7 C 16,1 C 79 % 1015,9 hPa 0,0 l/m 0 min 0 min 0,0 UV-I 9 W/m 0,0 km/h (0 Bft)
14.07.2014 21:36 18,6 C 16,1 C 79 % 1015,9 hPa 0,0 l/m 0 min 0 min 0,0 UV-I 9 W/m 0,0 km/h (0 Bft)
14.07.2014 21:38 18,5 C 16,1 C 80 % 1015,9 hPa 0,0 l/m 0 min 0 min 0,0 UV-I 9 W/m 0,0 km/h (0 Bft)
14.07.2014 21:40 18,4 C 16,1 C 80 % 1015,9 hPa 0,0 l/m 0 min 0 min 0,0 UV-I 7 W/m 0,0 km/h (0 Bft)
14.07.2014 21:42 18,3 C 15,6 C 80 % 1016,0 hPa 0,0 l/m 0 min 0 min 0,0 UV-I 7 W/m 0,0 km/h (0 Bft)
14.07.2014 21:44 18,3 C 15,6 C 80 % 1016,0 hPa 0,0 l/m 0 min 0 min 0,0 UV-I 5 W/m 0,0 km/h (0 Bft)
14.07.2014 21:46 18,2 C 15,6 C 81 % 1016,1 hPa 0,0 l/m 0 min 0 min 0,0 UV-I 5 W/m 0,0 km/h (0 Bft)
14.07.2014 21:48 18,1 C 15,6 C 81 % 1016,1 hPa 0,0 l/m 0 min 0 min 0,0 UV-I 5 W/m 0,0 km/h (0 Bft)
14.07.2014 21:50 18,1 C 15,6 C 81 % 1016,1 hPa 0,0 l/m 0 min 0 min 0,0 UV-I 5 W/m 0,0 km/h (0 Bft)
14.07.2014 21:52 18,0 C 15,6 C 82 % 1016,1 hPa 0,0 l/m 0 min 0 min 0,0 UV-I 0 W/m 0,0 km/h (0 Bft)
14.07.2014 21:54 17,9 C 15,6 C 82 % 1016,1 hPa 0,0 l/m 0 min 0 min 0,0 UV-I 0 W/m 0,0 km/h (0 Bft)
14.07.2014 21:56 17,8 C 15,6 C 82 % 1016,1 hPa 0,0 l/m 0 min 0 min 0,0 UV-I 0 W/m 0,0 km/h (0 Bft)
14.07.2014 21:58 17,8 C 15,0 C 83 % 1016,1 hPa 0,0 l/m 0 min 0 min 0,0 UV-I 0 W/m 0,0 km/h (0 Bft)
14.07.2014 22:00 17,7 C 15,0 C 83 % 1016,2 hPa 0,0 l/m 0 min 0 min 0,0 UV-I 0 W/m 0,0 km/h (0 Bft)
14.07.2014 22:02 17,6 C 15,0 C 83 % 1016,2 hPa 0,0 l/m 0 min 0 min 0,0 UV-I 0 W/m 0,0 km/h (0 Bft)
14.07.2014 22:04 17,6 C 15,0 C 84 % 1016,2 hPa 0,0 l/m 0 min 0 min 0,0 UV-I 0 W/m 0,0 km/h (0 Bft)
14.07.2014 22:06 17,4 C 15,0 C 84 % 1016,2 hPa 0,0 l/m 0 min 0 min 0,0 UV-I 0 W/m 0,0 km/h (0 Bft)
14.07.2014 22:08 17,4 C 15,0 C 84 % 1016,3 hPa 0,0 l/m 0 min 0 min 0,0 UV-I 0 W/m 0,0 km/h (0 Bft)
14.07.2014 22:10 17,3 C 15,0 C 85 % 1016,3 hPa 0,0 l/m 0 min 0 min 0,0 UV-I 0 W/m 2,1 km/h (1 Bft)
14.07.2014 22:12 17,3 C 15,0 C 84 % 1016,3 hPa 0,0 l/m 0 min 0 min 0,0 UV-I 0 W/m 0,0 km/h (0 Bft)
14.07.2014 22:14 17,3 C 15,0 C 85 % 1016,3 hPa 0,0 l/m 0 min 0 min 0,0 UV-I 0 W/m 0,0 km/h (0 Bft)
14.07.2014 22:16 17,2 C 15,0 C 85 % 1016,4 hPa 0,0 l/m 0 min 0 min 0,0 UV-I 0 W/m 0,0 km/h (0 Bft)
14.07.2014 22:18 17,2 C 15,0 C 85 % 1016,4 hPa 0,0 l/m 0 min 0 min 0,0 UV-I 0 W/m 0,0 km/h (0 Bft)
14.07.2014 22:20 17,1 C 15,0 C 85 % 1016,5 hPa 0,0 l/m 0 min 0 min 0,0 UV-I 0 W/m 0,0 km/h (0 Bft)
14.07.2014 22:22 17,1 C 15,0 C 85 % 1016,5 hPa 0,0 l/m 0 min 0 min 0,0 UV-I 0 W/m 0,0 km/h (0 Bft)
14.07.2014 22:24 17,0 C 14,4 C 85 % 1016,5 hPa 0,0 l/m 0 min 0 min 0,0 UV-I 0 W/m 0,0 km/h (0 Bft)
14.07.2014 22:26 16,9 C 14,4 C 85 % 1016,5 hPa 0,0 l/m 0 min 0 min 0,0 UV-I 0 W/m 0,0 km/h (0 Bft)
14.07.2014 22:28 16,9 C 14,4 C 85 % 1016,5 hPa 0,0 l/m 0 min 0 min 0,0 UV-I 0 W/m 0,0 km/h (0 Bft)
14.07.2014 22:30 16,9 C 14,4 C 85 % 1016,5 hPa 0,0 l/m 0 min 0 min 0,0 UV-I 0 W/m 0,0 km/h (0 Bft)
14.07.2014 22:32 16,9 C 14,4 C 86 % 1016,5 hPa 0,0 l/m 0 min 0 min 0,0 UV-I 0 W/m 0,0 km/h (0 Bft)
14.07.2014 22:34 16,8 C 14,4 C 86 % 1016,5 hPa 0,0 l/m 0 min 0 min 0,0 UV-I 0 W/m 0,0 km/h (0 Bft)
14.07.2014 22:36 16,8 C 14,4 C 86 % 1016,5 hPa 0,0 l/m 0 min 0 min 0,0 UV-I 0 W/m 0,0 km/h (0 Bft)
14.07.2014 22:38 16,8 C 14,4 C 86 % 1016,6 hPa 0,0 l/m 0 min 0 min 0,0 UV-I 0 W/m 0,0 km/h (0 Bft)
14.07.2014 22:40 16,8 C 14,4 C 86 % 1016,6 hPa 0,0 l/m 0 min 0 min 0,0 UV-I 0 W/m 0,0 km/h (0 Bft)
14.07.2014 22:42 16,7 C 14,4 C 86 % 1016,6 hPa 0,0 l/m 0 min 0 min 0,0 UV-I 0 W/m 0,0 km/h (0 Bft)
14.07.2014 22:44 16,6 C 14,4 C 86 % 1016,7 hPa 0,0 l/m 0 min 0 min 0,0 UV-I 0 W/m 0,0 km/h (0 Bft)
14.07.2014 22:46 16,6 C 14,4 C 86 % 1016,7 hPa 0,0 l/m 0 min 0 min 0,0 UV-I 0 W/m 0,0 km/h (0 Bft)
14.07.2014 22:48 16,6 C 14,4 C 87 % 1016,7 hPa 0,0 l/m 0 min 0 min 0,0 UV-I 0 W/m 0,0 km/h (0 Bft)
14.07.2014 22:50 16,5 C 14,4 C 87 % 1016,8 hPa 0,0 l/m 0 min 0 min 0,0 UV-I 0 W/m 0,0 km/h (0 Bft)
14.07.2014 22:52 16,4 C 14,4 C 87 % 1016,8 hPa 0,0 l/m 0 min 0 min 0,0 UV-I 0 W/m 0,0 km/h (0 Bft)
14.07.2014 22:54 16,4 C 13,9 C 87 % 1016,8 hPa 0,0 l/m 0 min 0 min 0,0 UV-I 0 W/m 0,0 km/h (0 Bft)
14.07.2014 22:56 16,3 C 13,9 C 87 % 1016,8 hPa 0,0 l/m 0 min 0 min 0,0 UV-I 0 W/m 0,0 km/h (0 Bft)
14.07.2014 22:58 16,2 C 13,9 C 88 % 1016,9 hPa 0,0 l/m 0 min 0 min 0,0 UV-I 0 W/m 0,0 km/h (0 Bft)
14.07.2014 23:00 16,2 C 13,9 C 88 % 1016,9 hPa 0,0 l/m 0 min 0 min 0,0 UV-I 0 W/m 0,0 km/h (0 Bft)
14.07.2014 23:02 16,1 C 13,9 C 88 % 1016,9 hPa 0,0 l/m 0 min 0 min 0,0 UV-I 0 W/m 0,0 km/h (0 Bft)
14.07.2014 23:04 16,1 C 13,9 C 89 % 1017,0 hPa 0,0 l/m 0 min 0 min 0,0 UV-I 0 W/m 0,0 km/h (0 Bft)
14.07.2014 23:06 16,1 C 13,9 C 89 % 1017,0 hPa 0,0 l/m 0 min 0 min 0,0 UV-I 0 W/m 0,0 km/h (0 Bft)
14.07.2014 23:08 16,0 C 13,9 C 89 % 1017,0 hPa 0,0 l/m 0 min 0 min 0,0 UV-I 0 W/m 0,0 km/h (0 Bft)
14.07.2014 23:10 15,9 C 13,9 C 89 % 1017,1 hPa 0,0 l/m 0 min 0 min 0,0 UV-I 0 W/m 0,0 km/h (0 Bft)
14.07.2014 23:12 15,9 C 13,9 C 89 % 1017,0 hPa 0,0 l/m 0 min 0 min 0,0 UV-I 0 W/m 0,0 km/h (0 Bft)
14.07.2014 23:14 15,9 C 13,9 C 90 % 1017,1 hPa 0,0 l/m 0 min 0 min 0,0 UV-I 0 W/m 0,0 km/h (0 Bft)
14.07.2014 23:16 15,8 C 13,9 C 90 % 1017,1 hPa 0,0 l/m 0 min 0 min 0,0 UV-I 0 W/m 0,0 km/h (0 Bft)
14.07.2014 23:18 15,8 C 13,9 C 90 % 1017,1 hPa 0,0 l/m 0 min 0 min 0,0 UV-I 0 W/m 0,0 km/h (0 Bft)
14.07.2014 23:20 15,8 C 13,9 C 91 % 1017,1 hPa 0,0 l/m 0 min 0 min 0,0 UV-I 0 W/m 0,0 km/h (0 Bft)
14.07.2014 23:22 15,7 C 13,9 C 91 % 1017,2 hPa 0,0 l/m 0 min 0 min 0,0 UV-I 0 W/m 0,0 km/h (0 Bft)
14.07.2014 23:24 15,7 C 13,9 C 91 % 1017,1 hPa 0,0 l/m 0 min 0 min 0,0 UV-I 0 W/m 0,0 km/h (0 Bft)
14.07.2014 23:26 15,7 C 13,9 C 92 % 1017,2 hPa 0,0 l/m 0 min 0 min 0,0 UV-I 0 W/m 0,0 km/h (0 Bft)
14.07.2014 23:28 15,6 C 13,9 C 92 % 1017,1 hPa 0,0 l/m 0 min 0 min 0,0 UV-I 0 W/m 0,0 km/h (0 Bft)
14.07.2014 23:30 15,6 C 13,9 C 92 % 1017,2 hPa 0,0 l/m 0 min 0 min 0,0 UV-I 0 W/m 0,0 km/h (0 Bft)
14.07.2014 23:32 15,5 C 13,9 C 92 % 1017,2 hPa 0,0 l/m 0 min 0 min 0,0 UV-I 0 W/m 0,0 km/h (0 Bft)
14.07.2014 23:34 15,5 C 13,9 C 92 % 1017,2 hPa 0,0 l/m 0 min 0 min 0,0 UV-I 0 W/m 0,0 km/h (0 Bft)
14.07.2014 23:36 15,4 C 13,3 C 92 % 1017,2 hPa 0,0 l/m 0 min 0 min 0,0 UV-I 0 W/m 0,0 km/h (0 Bft)
14.07.2014 23:38 15,4 C 13,3 C 92 % 1017,3 hPa 0,0 l/m 0 min 0 min 0,0 UV-I 0 W/m 0,0 km/h (0 Bft)
14.07.2014 23:40 15,3 C 13,3 C 93 % 1017,3 hPa 0,0 l/m 0 min 0 min 0,0 UV-I 0 W/m 0,0 km/h (0 Bft)
14.07.2014 23:42 15,3 C 13,3 C 93 % 1017,2 hPa 0,0 l/m 0 min 0 min 0,0 UV-I 0 W/m 0,0 km/h (0 Bft)
14.07.2014 23:44 15,3 C 13,3 C 93 % 1017,2 hPa 0,0 l/m 0 min 0 min 0,0 UV-I 0 W/m 0,0 km/h (0 Bft)
14.07.2014 23:46 15,3 C 13,3 C 93 % 1017,3 hPa 0,0 l/m 0 min 0 min 0,0 UV-I 0 W/m 0,0 km/h (0 Bft)
14.07.2014 23:48 15,3 C 13,3 C 93 % 1017,2 hPa 0,0 l/m 0 min 0 min 0,0 UV-I 0 W/m 0,0 km/h (0 Bft)
14.07.2014 23:50 15,2 C 13,3 C 93 % 1017,3 hPa 0,0 l/m 0 min 0 min 0,0 UV-I 0 W/m 0,0 km/h (0 Bft)
14.07.2014 23:52 15,2 C 13,3 C 93 % 1017,3 hPa 0,0 l/m 0 min 0 min 0,0 UV-I 0 W/m 0,0 km/h (0 Bft)
14.07.2014 23:54 15,2 C 13,3 C 93 % 1017,3 hPa 0,0 l/m 0 min 0 min 0,0 UV-I 0 W/m 0,0 km/h (0 Bft)
14.07.2014 23:56 15,1 C 13,3 C 93 % 1017,3 hPa 0,0 l/m 0 min 0 min 0,0 UV-I 0 W/m 0,0 km/h (0 Bft)
14.07.2014 23:58 15,1 C 13,3 C 94 % 1017,3 hPa 0,0 l/m 0 min 0 min 0,0 UV-I 0 W/m 0,0 km/h (0 Bft)
_ Min-Zeit 06:30 06:06 17:24 00:10 - - - - - 02:30
Minimum _ 14,7 C 13,3 C 64 % 1007,3 hPa - - - - - 0,0 km/h (0 Bft)
_ Max-Zeit 17:12 16:34 00:46 23:38 00:12 14:16 00:06 15:10 15:04 12:22
Maximum _ 23,9 C 27,2 C 99 % 1017,3 hPa 0,2 l/m 2 min 2 min 4,5 UV-I 1079 W/m 31,4 km/h
W (5 Bft)
Durchschnitt _ 18,1 C 17,1 C 88 % 1012,2 hPa #0,8 l/m #4:02 h #30 min. 1,7 UV-I 203 W/m 13,3 km/h (3 Bft)
© 2014 W. Hausmann